Observation data for Dozier on 08/12/2020      Previous  Date  Next       Current Mesonet Observations  Soil Data  Daily Summary Page  Observations in Plain Language
KDO1 120500Z 10009KT 28/20 A2995 RMK A01 T02810200  RH  061%=      5-min Rain = 0
KDO1 120501Z 09009KT 28/20 A2995 RMK A01 T02810201  RH  062%=      5-min Rain = 0
KDO1 120502Z 09010KT 28/20 A2995 RMK A01 T02810202  RH  062%=      5-min Rain = 0
KDO1 120503Z 09009KT 28/20 A2995 RMK A01 T02810203  RH  063%=      5-min Rain = 0
KDO1 120504Z 09007KT 28/20 A2995 RMK A01 T02810204  RH  063%=      5-min Rain = 0
KDO1 120505Z 09009KT 28/21 A2995 RMK A01 T02810205  RH  064%=      5-min Rain = 0
KDO1 120506Z 09010KT 28/21 A2995 RMK A01 T02810207  RH  064%=      5-min Rain = 0
KDO1 120507Z 09010KT 28/21 A2995 RMK A01 T02800208  RH  065%=      5-min Rain = 0
KDO1 120508Z 10009KT 28/21 A2995 RMK A01 T02810209  RH  065%=      5-min Rain = 0
KDO1 120509Z 09011KT 28/21 A2995 RMK A01 T02810209  RH  065%=      5-min Rain = 0
KDO1 120510Z 09009KT 28/21 A2995 RMK A01 T02810210  RH  065%=      5-min Rain = 0
KDO1 120511Z 10008KT 28/21 A2995 RMK A01 T02810210  RH  065%=      5-min Rain = 0
KDO1 120512Z 08009KT 28/21 A2995 RMK A01 T02810211  RH  066%=      5-min Rain = 0
KDO1 120513Z 09009KT 28/21 A2995 RMK A01 T02800211  RH  066%=      5-min Rain = 0
KDO1 120514Z 09008KT 28/21 A2995 RMK A01 T02800211  RH  066%=      5-min Rain = 0
KDO1 120515Z 09007KT 28/21 A2996 RMK A01 T02790211  RH  066%=      5-min Rain = 0
KDO1 120516Z 09010KT 28/21 A2996 RMK A01 T02790212  RH  067%=      5-min Rain = 0
KDO1 120517Z 09009KT 28/21 A2996 RMK A01 T02790213  RH  067%=      5-min Rain = 0
KDO1 120518Z 09009KT 28/21 A2996 RMK A01 T02790213  RH  067%=      5-min Rain = 0
KDO1 120519Z 09006KT 28/21 A2995 RMK A01 T02790213  RH  067%=      5-min Rain = 0
KDO1 120520Z 09008KT 28/21 A2995 RMK A01 T02790213  RH  067%=      5-min Rain = 0
KDO1 120521Z 09008KT 28/21 A2995 RMK A01 T02780213  RH  068%=      5-min Rain = 0
KDO1 120522Z 09008KT 28/21 A2995 RMK A01 T02780214  RH  068%=      5-min Rain = 0
KDO1 120523Z 10005KT 28/21 A2995 RMK A01 T02780214  RH  068%=      5-min Rain = 0
KDO1 120524Z 10008KT 28/21 A2995 RMK A01 T02770214  RH  068%=      5-min Rain = 0
KDO1 120525Z 09008KT 28/21 A2995 RMK A01 T02770214  RH  069%=      5-min Rain = 0
KDO1 120526Z 09008KT 28/21 A2995 RMK A01 T02770214  RH  069%=      5-min Rain = 0
KDO1 120527Z 09009KT 28/22 A2995 RMK A01 T02770215  RH  069%=      5-min Rain = 0
KDO1 120528Z 09009KT 28/21 A2995 RMK A01 T02760214  RH  069%=      5-min Rain = 0
KDO1 120529Z 09008KT 28/22 A2995 RMK A01 T02770215  RH  069%=      5-min Rain = 0
KDO1 120530Z 10008KT 28/22 A2995 RMK A01 T02760215  RH  069%=      5-min Rain = 0
KDO1 120531Z 10008KT 28/22 A2995 RMK A01 T02770215  RH  069%=      5-min Rain = 0
KDO1 120532Z 10008KT 28/22 A2995 RMK A01 T02760215  RH  069%=      5-min Rain = 0
KDO1 120533Z 09007KT 28/22 A2995 RMK A01 T02760215  RH  069%=      5-min Rain = 0
KDO1 120534Z 10006KT 28/22 A2995 RMK A01 T02760215  RH  069%=      5-min Rain = 0
KDO1 120535Z 10006KT 28/21 A2995 RMK A01 T02750214  RH  070%=      5-min Rain = 0
KDO1 120536Z 10007KT 27/22 A2995 RMK A01 T02740215  RH  070%=      5-min Rain = 0
KDO1 120537Z 09008KT 27/22 A2995 RMK A01 T02740215  RH  070%=      5-min Rain = 0
KDO1 120538Z 09007KT 27/22 A2995 RMK A01 T02740215  RH  070%=      5-min Rain = 0
KDO1 120539Z 10006KT 27/22 A2995 RMK A01 T02740215  RH  070%=      5-min Rain = 0
KDO1 120540Z 10007KT 27/22 A2995 RMK A01 T02730215  RH  070%=      5-min Rain = 0
KDO1 120541Z 10007KT 27/22 A2995 RMK A01 T02730215  RH  070%=      5-min Rain = 0
KDO1 120542Z 10007KT 27/22 A2995 RMK A01 T02730215  RH  070%=      5-min Rain = 0
KDO1 120543Z 10008KT 27/22 A2995 RMK A01 T02730215  RH  071%=      5-min Rain = 0
KDO1 120544Z 10006KT 27/22 A2995 RMK A01 T02730216  RH  071%=      5-min Rain = 0
KDO1 120545Z 10007KT 27/22 A2995 RMK A01 T02730215  RH  071%=      5-min Rain = 0
KDO1 120546Z 10007KT 27/22 A2995 RMK A01 T02730216  RH  071%=      5-min Rain = 0
KDO1 120547Z 10009KT 27/22 A2995 RMK A01 T02730216  RH  071%=      5-min Rain = 0
KDO1 120548Z 10007KT 27/22 A2995 RMK A01 T02730216  RH  071%=      5-min Rain = 0
KDO1 120549Z 10006KT 27/22 A2995 RMK A01 T02730216  RH  071%=      5-min Rain = 0
KDO1 120550Z 10008KT 27/22 A2995 RMK A01 T02730216  RH  071%=      5-min Rain = 0
KDO1 120551Z 10008KT 27/22 A2995 RMK A01 T02720216  RH  071%=      5-min Rain = 0
KDO1 120552Z 10007KT 27/22 A2995 RMK A01 T02720216  RH  071%=      5-min Rain = 0
KDO1 120553Z 09007KT 27/22 A2995 RMK A01 T02720217  RH  071%=      5-min Rain = 0
KDO1 120554Z 09006KT 27/22 A2995 RMK A01 T02720216  RH  072%=      5-min Rain = 0
KDO1 120555Z 10007KT 27/22 A2995 RMK A01 T02720217  RH  072%=      5-min Rain = 0
KDO1 120556Z 09008KT 27/22 A2995 RMK A01 T02710217  RH  072%=      5-min Rain = 0
KDO1 120557Z 10007KT 27/22 A2995 RMK A01 T02710217  RH  072%=      5-min Rain = 0
KDO1 120558Z 09007KT 27/22 A2995 RMK A01 T02710217  RH  072%=      5-min Rain = 0
KDO1 120559Z 09007KT 27/22 A2995 RMK A01 T02710217  RH  072%=      5-min Rain = 0
KDO1 120600Z 09007KT 27/22 A2995 RMK A01 T02710217  RH  072%=      5-min Rain = 0
KDO1 120601Z 10007KT 27/22 A2995 RMK A01 T02710217  RH  073%=      5-min Rain = 0
KDO1 120602Z 09007KT 27/22 A2995 RMK A01 T02710218  RH  073%=      5-min Rain = 0
KDO1 120603Z 09007KT 27/22 A2995 RMK A01 T02710218  RH  073%=      5-min Rain = 0
KDO1 120604Z 09005KT 27/22 A2995 RMK A01 T02700218  RH  073%=      5-min Rain = 0
KDO1 120605Z 09006KT 27/22 A2995 RMK A01 T02700218  RH  073%=      5-min Rain = 0
KDO1 120606Z 09006KT 27/22 A2995 RMK A01 T02690218  RH  073%=      5-min Rain = 0
KDO1 120607Z 09006KT 27/22 A2995 RMK A01 T02690218  RH  073%=      5-min Rain = 0
KDO1 120608Z 08007KT 27/22 A2995 RMK A01 T02690218  RH  074%=      5-min Rain = 0
KDO1 120609Z 09007KT 27/22 A2995 RMK A01 T02690218  RH  074%=      5-min Rain = 0
KDO1 120610Z 09006KT 27/22 A2995 RMK A01 T02690218  RH  074%=      5-min Rain = 0
KDO1 120611Z 09007KT 27/22 A2995 RMK A01 T02690218  RH  074%=      5-min Rain = 0
KDO1 120612Z 09008KT 27/22 A2995 RMK A01 T02690219  RH  074%=      5-min Rain = 0
KDO1 120613Z 09007KT 27/22 A2995 RMK A01 T02690219  RH  074%=      5-min Rain = 0
KDO1 120614Z 08007KT 27/22 A2995 RMK A01 T02690219  RH  074%=      5-min Rain = 0
KDO1 120615Z 09007KT 27/22 A2995 RMK A01 T02690219  RH  074%=      5-min Rain = 0
KDO1 120616Z 09008KT 27/22 A2995 RMK A01 T02680219  RH  075%=      5-min Rain = 0
KDO1 120617Z 09006KT 27/22 A2995 RMK A01 T02680219  RH  075%=      5-min Rain = 0
KDO1 120618Z 09008KT 27/22 A2995 RMK A01 T02680219  RH  075%=      5-min Rain = 0
KDO1 120619Z 09007KT 27/22 A2995 RMK A01 T02680220  RH  075%=      5-min Rain = 0
KDO1 120620Z 09007KT 27/22 A2995 RMK A01 T02670220  RH  075%=      5-min Rain = 0
KDO1 120621Z 09007KT 27/22 A2995 RMK A01 T02670220  RH  075%=      5-min Rain = 0
KDO1 120622Z 09007KT 27/22 A2995 RMK A01 T02670220  RH  075%=      5-min Rain = 0
KDO1 120623Z 09006KT 27/22 A2995 RMK A01 T02660220  RH  076%=      5-min Rain = 0
KDO1 120624Z 09007KT 27/22 A2995 RMK A01 T02660220  RH  076%=      5-min Rain = 0
KDO1 120625Z 09007KT 27/22 A2995 RMK A01 T02660220  RH  076%=      5-min Rain = 0
KDO1 120626Z 09008KT 27/22 A2995 RMK A01 T02660221  RH  076%=      5-min Rain = 0
KDO1 120627Z 08007KT 27/22 A2995 RMK A01 T02660221  RH  076%=      5-min Rain = 0
KDO1 120628Z 09006KT 27/22 A2995 RMK A01 T02650221  RH  076%=      5-min Rain = 0
KDO1 120629Z 08006KT 27/22 A2995 RMK A01 T02650220  RH  076%=      5-min Rain = 0
KDO1 120630Z 09007KT 27/22 A2995 RMK A01 T02650221  RH  077%=      5-min Rain = 0
KDO1 120631Z 08006KT 27/22 A2995 RMK A01 T02650221  RH  077%=      5-min Rain = 0
KDO1 120632Z 09006KT 27/22 A2995 RMK A01 T02650221  RH  077%=      5-min Rain = 0
KDO1 120633Z 09007KT 26/22 A2995 RMK A01 T02640221  RH  077%=      5-min Rain = 0
KDO1 120634Z 08005KT 26/22 A2995 RMK A01 T02640221  RH  077%=      5-min Rain = 0
KDO1 120635Z 08007KT 26/22 A2995 RMK A01 T02640222  RH  078%=      5-min Rain = 0
KDO1 120636Z 08007KT 26/22 A2995 RMK A01 T02640222  RH  078%=      5-min Rain = 0
KDO1 120637Z 09006KT 26/22 A2995 RMK A01 T02640222  RH  078%=      5-min Rain = 0
KDO1 120638Z 09006KT 26/22 A2995 RMK A01 T02630222  RH  078%=      5-min Rain = 0
KDO1 120639Z 09007KT 26/22 A2995 RMK A01 T02630222  RH  078%=      5-min Rain = 0
KDO1 120640Z 09006KT 26/22 A2995 RMK A01 T02630222  RH  078%=      5-min Rain = 0
KDO1 120641Z 09007KT 26/22 A2995 RMK A01 T02630223  RH  078%=      5-min Rain = 0
KDO1 120642Z 09007KT 26/22 A2995 RMK A01 T02630223  RH  078%=      5-min Rain = 0
KDO1 120643Z 08007KT 26/22 A2995 RMK A01 T02630223  RH  078%=      5-min Rain = 0
KDO1 120644Z 09006KT 26/22 A2995 RMK A01 T02630223  RH  079%=      5-min Rain = 0
KDO1 120645Z 08006KT 26/22 A2995 RMK A01 T02630223  RH  079%=      5-min Rain = 0
KDO1 120646Z 09006KT 26/22 A2995 RMK A01 T02630223  RH  079%=      5-min Rain = 0
KDO1 120647Z 09007KT 26/22 A2995 RMK A01 T02630224  RH  079%=      5-min Rain = 0
KDO1 120648Z 08006KT 26/22 A2995 RMK A01 T02630223  RH  079%=      5-min Rain = 0
KDO1 120649Z 08005KT 26/22 A2995 RMK A01 T02630224  RH  079%=      5-min Rain = 0
KDO1 120650Z 08005KT 26/22 A2995 RMK A01 T02620223  RH  079%=      5-min Rain = 0
KDO1 120651Z 09006KT 26/22 A2995 RMK A01 T02620223  RH  079%=      5-min Rain = 0
KDO1 120652Z 08006KT 26/22 A2995 RMK A01 T02610223  RH  080%=      5-min Rain = 0
KDO1 120653Z 08006KT 26/22 A2995 RMK A01 T02610224  RH  080%=      5-min Rain = 0
KDO1 120654Z 08006KT 26/22 A2995 RMK A01 T02610224  RH  080%=      5-min Rain = 0
KDO1 120655Z 09006KT 26/22 A2995 RMK A01 T02610224  RH  080%=      5-min Rain = 0
KDO1 120656Z 08005KT 26/22 A2995 RMK A01 T02600224  RH  080%=      5-min Rain = 0
KDO1 120657Z 08005KT 26/22 A2995 RMK A01 T02600224  RH  081%=      5-min Rain = 0
KDO1 120658Z 09006KT 26/23 A2995 RMK A01 T02600225  RH  081%=      5-min Rain = 0
KDO1 120659Z 09005KT 26/23 A2995 RMK A01 T02590225  RH  081%=      5-min Rain = 0
KDO1 120700Z 08005KT 26/23 A2995 RMK A01 T02590225  RH  081%=      5-min Rain = 0
KDO1 120701Z 09005KT 26/23 A2994 RMK A01 T02590225  RH  081%=      5-min Rain = 0
KDO1 120702Z 09005KT 26/23 A2994 RMK A01 T02590225  RH  082%=      5-min Rain = 0
KDO1 120703Z 09005KT 26/23 A2994 RMK A01 T02590225  RH  082%=      5-min Rain = 0
KDO1 120704Z 08005KT 26/23 A2994 RMK A01 T02590225  RH  082%=      5-min Rain = 0
KDO1 120705Z 09004KT 26/23 A2994 RMK A01 T02590225  RH  082%=      5-min Rain = 0
KDO1 120706Z 08005KT 26/23 A2994 RMK A01 T02580225  RH  082%=      5-min Rain = 0
KDO1 120707Z 09005KT 26/23 A2994 RMK A01 T02580226  RH  082%=      5-min Rain = 0
KDO1 120708Z 09005KT 26/23 A2994 RMK A01 T02580226  RH  083%=      5-min Rain = 0
KDO1 120709Z 08005KT 26/23 A2994 RMK A01 T02580226  RH  083%=      5-min Rain = 0
KDO1 120710Z 09006KT 26/23 A2994 RMK A01 T02570226  RH  083%=      5-min Rain = 0
KDO1 120711Z 08008KT 26/23 A2994 RMK A01 T02570226  RH  083%=      5-min Rain = 0
KDO1 120712Z 07006KT 26/23 A2994 RMK A01 T02570226  RH  083%=      5-min Rain = 0
KDO1 120713Z 08008KT 26/23 A2994 RMK A01 T02570227  RH  083%=      5-min Rain = 0
KDO1 120714Z 08008KT 26/23 A2994 RMK A01 T02570227  RH  083%=      5-min Rain = 0
KDO1 120715Z 08007KT 26/23 A2994 RMK A01 T02570227  RH  084%=      5-min Rain = 0
KDO1 120716Z 09006KT 26/23 A2994 RMK A01 T02570227  RH  084%=      5-min Rain = 0
KDO1 120717Z 08007KT 26/23 A2994 RMK A01 T02570227  RH  084%=      5-min Rain = 0
KDO1 120718Z 09006KT 26/23 A2994 RMK A01 T02570227  RH  084%=      5-min Rain = 0
KDO1 120719Z 08007KT 26/23 A2994 RMK A01 T02570227  RH  084%=      5-min Rain = 0
KDO1 120720Z 08007KT 26/23 A2994 RMK A01 T02570227  RH  084%=      5-min Rain = 0
KDO1 120721Z 08007KT 26/23 A2994 RMK A01 T02570227  RH  084%=      5-min Rain = 0
KDO1 120722Z 08008KT 26/23 A2994 RMK A01 T02570227  RH  084%=      5-min Rain = 0
KDO1 120723Z 08008KT 26/23 A2994 RMK A01 T02570228  RH  084%=      5-min Rain = 0
KDO1 120724Z 08006KT 26/23 A2993 RMK A01 T02560227  RH  084%=      5-min Rain = 0
KDO1 120725Z 09006KT 26/23 A2993 RMK A01 T02560227  RH  084%=      5-min Rain = 0
KDO1 120726Z 09006KT 26/23 A2993 RMK A01 T02560227  RH  084%=      5-min Rain = 0
KDO1 120727Z 08006KT 26/23 A2993 RMK A01 T02560227  RH  084%=      5-min Rain = 0
KDO1 120728Z 09005KT 26/23 A2993 RMK A01 T02560227  RH  084%=      5-min Rain = 0
KDO1 120729Z 09005KT 26/23 A2993 RMK A01 T02550227  RH  084%=      5-min Rain = 0
KDO1 120730Z 09006KT 26/23 A2993 RMK A01 T02560228  RH  085%=      5-min Rain = 0
KDO1 120731Z 10006KT 26/23 A2993 RMK A01 T02550227  RH  085%=      5-min Rain = 0
KDO1 120732Z 09005KT 26/23 A2993 RMK A01 T02550228  RH  085%=      5-min Rain = 0
KDO1 120733Z 09006KT 26/23 A2993 RMK A01 T02550228  RH  085%=      5-min Rain = 0
KDO1 120734Z 09008KT 26/23 A2993 RMK A01 T02550228  RH  085%=      5-min Rain = 0
KDO1 120735Z 09007KT 26/23 A2993 RMK A01 T02550228  RH  085%=      5-min Rain = 0
KDO1 120736Z 10007KT 26/23 A2993 RMK A01 T02560228  RH  085%=      5-min Rain = 0
KDO1 120737Z 09008KT 26/23 A2993 RMK A01 T02550228  RH  085%=      5-min Rain = 0
KDO1 120738Z 09008KT 26/23 A2993 RMK A01 T02550227  RH  084%=      5-min Rain = 0
KDO1 120739Z 10007KT 26/23 A2993 RMK A01 T02560228  RH  084%=      5-min Rain = 0
KDO1 120740Z 10006KT 26/23 A2993 RMK A01 T02560228  RH  085%=      5-min Rain = 0
KDO1 120741Z 09007KT 26/23 A2993 RMK A01 T02560228  RH  085%=      5-min Rain = 0
KDO1 120742Z 10006KT 26/23 A2993 RMK A01 T02550228  RH  085%=      5-min Rain = 0
KDO1 120743Z 10006KT 26/23 A2993 RMK A01 T02550228  RH  085%=      5-min Rain = 0
KDO1 120744Z 09007KT 25/23 A2993 RMK A01 T02540228  RH  085%=      5-min Rain = 0
KDO1 120745Z 11007KT 26/23 A2993 RMK A01 T02550228  RH  085%=      5-min Rain = 0
KDO1 120746Z 10007KT 26/23 A2993 RMK A01 T02550228  RH  085%=      5-min Rain = 0
KDO1 120747Z 11007KT 25/23 A2993 RMK A01 T02540228  RH  085%=      5-min Rain = 0
KDO1 120748Z 11007KT 25/23 A2992 RMK A01 T02540228  RH  085%=      5-min Rain = 0
KDO1 120749Z 11008KT 25/23 A2993 RMK A01 T02540227  RH  085%=      5-min Rain = 0
KDO1 120750Z 10007KT 25/23 A2992 RMK A01 T02540228  RH  085%=      5-min Rain = 0
KDO1 120751Z 10007KT 25/23 A2992 RMK A01 T02540228  RH  085%=      5-min Rain = 0
KDO1 120752Z 10007KT 25/23 A2992 RMK A01 T02540228  RH  085%=      5-min Rain = 0
KDO1 120753Z 10007KT 25/23 A2992 RMK A01 T02540228  RH  086%=      5-min Rain = 0
KDO1 120754Z 10007KT 25/23 A2992 RMK A01 T02530228  RH  086%=      5-min Rain = 0
KDO1 120755Z 10008KT 25/23 A2992 RMK A01 T02530228  RH  086%=      5-min Rain = 0
KDO1 120756Z 09006KT 25/23 A2992 RMK A01 T02530227  RH  086%=      5-min Rain = 0
KDO1 120757Z 10007KT 25/23 A2993 RMK A01 T02530227  RH  086%=      5-min Rain = 0
KDO1 120758Z 10007KT 25/23 A2993 RMK A01 T02530227  RH  086%=      5-min Rain = 0
KDO1 120759Z 10006KT 25/23 A2993 RMK A01 T02530227  RH  085%=      5-min Rain = 0
KDO1 120800Z 10008KT 25/23 A2993 RMK A01 T02530227  RH  085%=      5-min Rain = 0
KDO1 120801Z 10006KT 25/23 A2993 RMK A01 T02530227  RH  086%=      5-min Rain = 0
KDO1 120802Z 10007KT 25/23 A2993 RMK A01 T02530227  RH  085%=      5-min Rain = 0
KDO1 120803Z 10007KT 25/23 A2993 RMK A01 T02530227  RH  086%=      5-min Rain = 0
KDO1 120804Z 10007KT 25/23 A2993 RMK A01 T02530227  RH  086%=      5-min Rain = 0
KDO1 120805Z 10006KT 25/23 A2993 RMK A01 T02530227  RH  086%=      5-min Rain = 0
KDO1 120806Z 10006KT 25/23 A2993 RMK A01 T02530227  RH  086%=      5-min Rain = 0
KDO1 120807Z 11005KT 25/23 A2993 RMK A01 T02520227  RH  086%=      5-min Rain = 0
KDO1 120808Z 10006KT 25/23 A2993 RMK A01 T02520227  RH  086%=      5-min Rain = 0
KDO1 120809Z 10004KT 25/23 A2993 RMK A01 T02520227  RH  086%=      5-min Rain = 0
KDO1 120810Z 11006KT 25/23 A2993 RMK A01 T02510227  RH  086%=      5-min Rain = 0
KDO1 120811Z 11005KT 25/23 A2993 RMK A01 T02510227  RH  087%=      5-min Rain = 0
KDO1 120812Z 11007KT 25/23 A2993 RMK A01 T02510227  RH  087%=      5-min Rain = 0
KDO1 120813Z 11006KT 25/23 A2993 RMK A01 T02510228  RH  087%=      5-min Rain = 0
KDO1 120814Z 11007KT 25/23 A2993 RMK A01 T02510227  RH  087%=      5-min Rain = 0
KDO1 120815Z 11006KT 25/23 A2993 RMK A01 T02510227  RH  087%=      5-min Rain = 0
KDO1 120816Z 11006KT 25/23 A2993 RMK A01 T02500227  RH  087%=      5-min Rain = 0
KDO1 120817Z 11005KT 25/23 A2993 RMK A01 T02500227  RH  087%=      5-min Rain = 0
KDO1 120818Z 11006KT 25/23 A2993 RMK A01 T02500227  RH  087%=      5-min Rain = 0
KDO1 120819Z 11004KT 25/23 A2993 RMK A01 T02490227  RH  087%=      5-min Rain = 0
KDO1 120820Z 10006KT 25/23 A2993 RMK A01 T02490227  RH  088%=      5-min Rain = 0
KDO1 120821Z 11005KT 25/23 A2993 RMK A01 T02490227  RH  088%=      5-min Rain = 0
KDO1 120822Z 10005KT 25/23 A2992 RMK A01 T02490227  RH  088%=      5-min Rain = 0
KDO1 120823Z 10005KT 25/23 A2992 RMK A01 T02490227  RH  088%=      5-min Rain = 0
KDO1 120824Z 10005KT 25/23 A2992 RMK A01 T02490227  RH  088%=      5-min Rain = 0
KDO1 120825Z 10005KT 25/23 A2992 RMK A01 T02480227  RH  088%=      5-min Rain = 0
KDO1 120826Z 11005KT 25/23 A2993 RMK A01 T02480227  RH  088%=      5-min Rain = 0
KDO1 120827Z 10004KT 25/23 A2993 RMK A01 T02480227  RH  088%=      5-min Rain = 0
KDO1 120828Z 11005KT 25/23 A2992 RMK A01 T02470227  RH  088%=      5-min Rain = 0
KDO1 120829Z 10005KT 25/23 A2992 RMK A01 T02470227  RH  088%=      5-min Rain = 0
KDO1 120830Z 11006KT 25/23 A2992 RMK A01 T02470227  RH  089%=      5-min Rain = 0
KDO1 120831Z 10007KT 25/23 A2992 RMK A01 T02470227  RH  089%=      5-min Rain = 0
KDO1 120832Z 11006KT 25/23 A2992 RMK A01 T02470227  RH  088%=      5-min Rain = 0
KDO1 120833Z 11006KT 25/23 A2992 RMK A01 T02470226  RH  088%=      5-min Rain = 0
KDO1 120834Z 10005KT 25/23 A2992 RMK A01 T02470226  RH  088%=      5-min Rain = 0
KDO1 120835Z 11005KT 25/23 A2992 RMK A01 T02460226  RH  088%=      5-min Rain = 0
KDO1 120836Z 11005KT 25/23 A2992 RMK A01 T02460226  RH  088%=      5-min Rain = 0
KDO1 120837Z 11004KT 25/23 A2992 RMK A01 T02460226  RH  088%=      5-min Rain = 0
KDO1 120838Z 11008KT 25/23 A2992 RMK A01 T02450225  RH  088%=      5-min Rain = 0
KDO1 120839Z 10007KT 25/23 A2992 RMK A01 T02450225  RH  088%=      5-min Rain = 0
KDO1 120840Z 11006KT 25/23 A2992 RMK A01 T02460225  RH  088%=      5-min Rain = 0
KDO1 120841Z 11006KT 25/23 A2992 RMK A01 T02460225  RH  088%=      5-min Rain = 0
KDO1 120842Z 11005KT 25/23 A2992 RMK A01 T02460225  RH  088%=      5-min Rain = 0
KDO1 120843Z 11006KT 25/22 A2992 RMK A01 T02450224  RH  088%=      5-min Rain = 0
KDO1 120844Z 11005KT 25/23 A2992 RMK A01 T02450225  RH  088%=      5-min Rain = 0
KDO1 120845Z 11004KT 25/23 A2992 RMK A01 T02450225  RH  088%=      5-min Rain = 0
KDO1 120846Z 11006KT 25/22 A2992 RMK A01 T02450224  RH  088%=      5-min Rain = 0
KDO1 120847Z 11005KT 24/22 A2992 RMK A01 T02440224  RH  089%=      5-min Rain = 0
KDO1 120848Z 10006KT 24/22 A2992 RMK A01 T02440224  RH  089%=      5-min Rain = 0
KDO1 120849Z 10005KT 24/22 A2992 RMK A01 T02440224  RH  089%=      5-min Rain = 0
KDO1 120850Z 10006KT 24/22 A2992 RMK A01 T02440224  RH  089%=      5-min Rain = 0
KDO1 120851Z 10006KT 24/22 A2992 RMK A01 T02430223  RH  089%=      5-min Rain = 0
KDO1 120852Z 11005KT 24/22 A2992 RMK A01 T02440224  RH  089%=      5-min Rain = 0
KDO1 120853Z 10005KT 24/22 A2992 RMK A01 T02440223  RH  088%=      5-min Rain = 0
KDO1 120854Z 11005KT 24/22 A2992 RMK A01 T02430223  RH  089%=      5-min Rain = 0
KDO1 120855Z 10005KT 24/22 A2992 RMK A01 T02430223  RH  089%=      5-min Rain = 0
KDO1 120856Z 10005KT 24/22 A2992 RMK A01 T02420223  RH  089%=      5-min Rain = 0
KDO1 120857Z 10006KT 24/22 A2992 RMK A01 T02420222  RH  089%=      5-min Rain = 0
KDO1 120858Z 11005KT 24/22 A2992 RMK A01 T02420222  RH  088%=      5-min Rain = 0
KDO1 120859Z 11005KT 24/22 A2992 RMK A01 T02430222  RH  088%=      5-min Rain = 0
KDO1 120900Z 11005KT 24/22 A2992 RMK A01 T02430222  RH  088%=      5-min Rain = 0
KDO1 120901Z 11005KT 24/22 A2992 RMK A01 T02420222  RH  088%=      5-min Rain = 0
KDO1 120902Z 11005KT 24/22 A2992 RMK A01 T02420222  RH  089%=      5-min Rain = 0
KDO1 120903Z 12005KT 24/22 A2992 RMK A01 T02410221  RH  088%=      5-min Rain = 0
KDO1 120904Z 11004KT 24/22 A2992 RMK A01 T02410221  RH  088%=      5-min Rain = 0
KDO1 120905Z 11006KT 24/22 A2992 RMK A01 T02410221  RH  089%=      5-min Rain = 0
KDO1 120906Z 11004KT 24/22 A2992 RMK A01 T02410221  RH  089%=      5-min Rain = 0
KDO1 120907Z 11006KT 24/22 A2992 RMK A01 T02400220  RH  088%=      5-min Rain = 0
KDO1 120908Z 11005KT 24/22 A2992 RMK A01 T02410220  RH  088%=      5-min Rain = 0
KDO1 120909Z 11006KT 24/22 A2992 RMK A01 T02410220  RH  088%=      5-min Rain = 0
KDO1 120910Z 11006KT 24/22 A2992 RMK A01 T02400220  RH  088%=      5-min Rain = 0
KDO1 120911Z 10005KT 24/22 A2992 RMK A01 T02400219  RH  088%=      5-min Rain = 0
KDO1 120912Z 11005KT 24/22 A2992 RMK A01 T02400219  RH  088%=      5-min Rain = 0
KDO1 120913Z 10006KT 24/22 A2993 RMK A01 T02390219  RH  088%=      5-min Rain = 0
KDO1 120914Z 10006KT 24/22 A2993 RMK A01 T02390218  RH  088%=      5-min Rain = 0
KDO1 120915Z 10006KT 24/22 A2993 RMK A01 T02390218  RH  088%=      5-min Rain = 0
KDO1 120916Z 10006KT 24/22 A2993 RMK A01 T02400218  RH  088%=      5-min Rain = 0
KDO1 120917Z 10006KT 24/22 A2993 RMK A01 T02390218  RH  088%=      5-min Rain = 0
KDO1 120918Z 10007KT 24/22 A2993 RMK A01 T02390218  RH  088%=      5-min Rain = 0
KDO1 120919Z 10006KT 24/22 A2993 RMK A01 T02390217  RH  087%=      5-min Rain = 0
KDO1 120920Z 10004KT 24/22 A2992 RMK A01 T02390217  RH  087%=      5-min Rain = 0
KDO1 120921Z 10006KT 24/22 A2992 RMK A01 T02390217  RH  087%=      5-min Rain = 0
KDO1 120922Z 11006KT 24/22 A2992 RMK A01 T02390217  RH  088%=      5-min Rain = 0
KDO1 120923Z 10005KT 24/22 A2992 RMK A01 T02390217  RH  088%=      5-min Rain = 0
KDO1 120924Z 11004KT 24/22 A2992 RMK A01 T02390217  RH  088%=      5-min Rain = 0
KDO1 120925Z 11005KT 24/22 A2992 RMK A01 T02390217  RH  088%=      5-min Rain = 0
KDO1 120926Z 12006KT 24/22 A2992 RMK A01 T02380217  RH  088%=      5-min Rain = 0
KDO1 120927Z 12003KT 24/22 A2992 RMK A01 T02380216  RH  088%=      5-min Rain = 0
KDO1 120928Z 12005KT 24/22 A2992 RMK A01 T02380216  RH  088%=      5-min Rain = 0
KDO1 120929Z 12005KT 24/22 A2992 RMK A01 T02370216  RH  088%=      5-min Rain = 0
KDO1 120930Z 12005KT 24/22 A2993 RMK A01 T02370216  RH  088%=      5-min Rain = 0
KDO1 120931Z 12005KT 24/22 A2993 RMK A01 T02370216  RH  088%=      5-min Rain = 0
KDO1 120932Z 13004KT 24/22 A2993 RMK A01 T02370215  RH  088%=      5-min Rain = 0
KDO1 120933Z 13005KT 24/22 A2993 RMK A01 T02370215  RH  088%=      5-min Rain = 0
KDO1 120934Z 14004KT 24/22 A2993 RMK A01 T02370215  RH  088%=      5-min Rain = 0
KDO1 120935Z 14005KT 24/22 A2993 RMK A01 T02370215  RH  088%=      5-min Rain = 0
KDO1 120936Z 13005KT 24/22 A2993 RMK A01 T02370215  RH  087%=      5-min Rain = 0
KDO1 120937Z 13004KT 24/22 A2993 RMK A01 T02370215  RH  087%=      5-min Rain = 0
KDO1 120938Z 12005KT 24/22 A2993 RMK A01 T02370215  RH  087%=      5-min Rain = 0
KDO1 120939Z 12005KT 24/22 A2993 RMK A01 T02370215  RH  088%=      5-min Rain = 0
KDO1 120940Z 13005KT 24/22 A2993 RMK A01 T02360215  RH  088%=      5-min Rain = 0
KDO1 120941Z 13005KT 24/22 A2993 RMK A01 T02360215  RH  088%=      5-min Rain = 0
KDO1 120942Z 12005KT 24/22 A2993 RMK A01 T02350215  RH  088%=      5-min Rain = 0
KDO1 120943Z 13005KT 24/22 A2993 RMK A01 T02350215  RH  088%=      5-min Rain = 0
KDO1 120944Z 12004KT 24/22 A2993 RMK A01 T02350215  RH  088%=      5-min Rain = 0
KDO1 120945Z 12004KT 23/21 A2993 RMK A01 T02340214  RH  089%=      5-min Rain = 0
KDO1 120946Z 12004KT 23/21 A2993 RMK A01 T02340214  RH  089%=      5-min Rain = 0
KDO1 120947Z 12004KT 23/22 A2993 RMK A01 T02340215  RH  089%=      5-min Rain = 0
KDO1 120948Z 12004KT 23/22 A2993 RMK A01 T02330215  RH  089%=      5-min Rain = 0
KDO1 120949Z 12005KT 23/21 A2993 RMK A01 T02330214  RH  089%=      5-min Rain = 0
KDO1 120950Z 12005KT 23/21 A2993 RMK A01 T02320214  RH  090%=      5-min Rain = 0
KDO1 120951Z 13004KT 23/22 A2993 RMK A01 T02330215  RH  090%=      5-min Rain = 0
KDO1 120952Z 12005KT 23/22 A2993 RMK A01 T02320215  RH  090%=      5-min Rain = 0
KDO1 120953Z 12004KT 23/22 A2993 RMK A01 T02320215  RH  090%=      5-min Rain = 0
KDO1 120954Z 13004KT 23/21 A2993 RMK A01 T02320214  RH  090%=      5-min Rain = 0
KDO1 120955Z 13005KT 23/22 A2993 RMK A01 T02310215  RH  090%=      5-min Rain = 0
KDO1 120956Z 13004KT 23/21 A2993 RMK A01 T02310214  RH  090%=      5-min Rain = 0
KDO1 120957Z 13003KT 23/21 A2993 RMK A01 T02310214  RH  090%=      5-min Rain = 0
KDO1 120958Z 13003KT 23/21 A2993 RMK A01 T02310214  RH  091%=      5-min Rain = 0
KDO1 120959Z 14002KT 23/21 A2993 RMK A01 T02300214  RH  091%=      5-min Rain = 0
KDO1 121000Z 14002KT 23/21 A2993 RMK A01 T02300214  RH  091%=      5-min Rain = 0
KDO1 121001Z 15001KT 23/21 A2993 RMK A01 T02300214  RH  091%=      5-min Rain = 0
KDO1 121002Z 15001KT 23/21 A2993 RMK A01 T02290214  RH  091%=      5-min Rain = 0
KDO1 121003Z 16001KT 23/21 A2993 RMK A01 T02290214  RH  091%=      5-min Rain = 0
KDO1 121004Z 15001KT 23/21 A2993 RMK A01 T02290214  RH  091%=      5-min Rain = 0
KDO1 121005Z 17000KT 23/21 A2993 RMK A01 T02280214  RH  091%=      5-min Rain = 0
KDO1 121006Z 00000KT 23/21 A2993 RMK A01 T02280214  RH  092%=      5-min Rain = 0
KDO1 121007Z 18000KT 23/21 A2993 RMK A01 T02280214  RH  092%=      5-min Rain = 0
KDO1 121008Z 00000KT 23/21 A2993 RMK A01 T02270213  RH  092%=      5-min Rain = 0
KDO1 121009Z 16000KT 23/21 A2993 RMK A01 T02270213  RH  092%=      5-min Rain = 0
KDO1 121010Z 14000KT 23/21 A2993 RMK A01 T02270213  RH  092%=      5-min Rain = 0
KDO1 121011Z 15001KT 23/21 A2993 RMK A01 T02260213  RH  092%=      5-min Rain = 0
KDO1 121012Z 14001KT 23/21 A2993 RMK A01 T02260214  RH  093%=      5-min Rain = 0
KDO1 121013Z 12001KT 23/21 A2993 RMK A01 T02260214  RH  093%=      5-min Rain = 0
KDO1 121014Z 10001KT 23/21 A2993 RMK A01 T02260214  RH  093%=      5-min Rain = 0
KDO1 121015Z 12001KT 23/21 A2993 RMK A01 T02270214  RH  092%=      5-min Rain = 0
KDO1 121016Z 09001KT 23/21 A2994 RMK A01 T02270214  RH  092%=      5-min Rain = 0
KDO1 121017Z 09001KT 23/21 A2994 RMK A01 T02270214  RH  092%=      5-min Rain = 0
KDO1 121018Z 12001KT 23/21 A2994 RMK A01 T02270214  RH  092%=      5-min Rain = 0
KDO1 121019Z 12001KT 23/21 A2994 RMK A01 T02270214  RH  092%=      5-min Rain = 0
KDO1 121020Z 00000KT 23/21 A2994 RMK A01 T02270214  RH  092%=      5-min Rain = 0
KDO1 121021Z 00000KT 23/21 A2994 RMK A01 T02270214  RH  092%=      5-min Rain = 0
KDO1 121022Z 00000KT 23/21 A2994 RMK A01 T02280214  RH  092%=      5-min Rain = 0
KDO1 121023Z 00000KT 23/21 A2994 RMK A01 T02280214  RH  092%=      5-min Rain = 0
KDO1 121024Z 00000KT 23/21 A2994 RMK A01 T02280214  RH  092%=      5-min Rain = 0
KDO1 121025Z 03000KT 23/21 A2994 RMK A01 T02280214  RH  091%=      5-min Rain = 0
KDO1 121026Z 00000KT 23/21 A2994 RMK A01 T02290213  RH  091%=      5-min Rain = 0
KDO1 121027Z 35000KT 23/21 A2994 RMK A01 T02290214  RH  091%=      5-min Rain = 0
KDO1 121028Z 05001KT 23/21 A2994 RMK A01 T02290214  RH  091%=      5-min Rain = 0
KDO1 121029Z 00000KT 23/21 A2994 RMK A01 T02290214  RH  091%=      5-min Rain = 0
KDO1 121030Z 34000KT 23/21 A2994 RMK A01 T02290213  RH  091%=      5-min Rain = 0
KDO1 121031Z 00000KT 23/21 A2995 RMK A01 T02290213  RH  091%=      5-min Rain = 0
KDO1 121032Z 09001KT 23/21 A2995 RMK A01 T02290213  RH  090%=      5-min Rain = 0
KDO1 121033Z 07001KT 23/21 A2995 RMK A01 T02290213  RH  090%=      5-min Rain = 0
KDO1 121034Z 06000KT 23/21 A2995 RMK A01 T02300213  RH  090%=      5-min Rain = 0
KDO1 121035Z 08000KT 23/21 A2995 RMK A01 T02290213  RH  090%=      5-min Rain = 0
KDO1 121036Z 00000KT 23/21 A2995 RMK A01 T02300213  RH  091%=      5-min Rain = 0
KDO1 121037Z 10000KT 23/21 A2995 RMK A01 T02300213  RH  090%=      5-min Rain = 0
KDO1 121038Z 13000KT 23/21 A2995 RMK A01 T02290213  RH  091%=      5-min Rain = 0
KDO1 121039Z 00000KT 23/21 A2995 RMK A01 T02290213  RH  091%=      5-min Rain = 0
KDO1 121040Z 00000KT 23/21 A2995 RMK A01 T02280213  RH  091%=      5-min Rain = 0
KDO1 121041Z 00000KT 23/21 A2995 RMK A01 T02280213  RH  091%=      5-min Rain = 0
KDO1 121042Z 00000KT 23/21 A2995 RMK A01 T02280214  RH  092%=      5-min Rain = 0
KDO1 121043Z 13000KT 23/21 A2995 RMK A01 T02270214  RH  092%=      5-min Rain = 0
KDO1 121044Z 14001KT 23/21 A2995 RMK A01 T02270214  RH  092%=      5-min Rain = 0
KDO1 121045Z 14001KT 23/21 A2995 RMK A01 T02270214  RH  092%=      5-min Rain = 0
KDO1 121046Z 16002KT 23/21 A2995 RMK A01 T02270214  RH  092%=      5-min Rain = 0
KDO1 121047Z 16002KT 23/21 A2995 RMK A01 T02270213  RH  092%=      5-min Rain = 0
KDO1 121048Z 16002KT 23/21 A2995 RMK A01 T02280214  RH  091%=      5-min Rain = 0
KDO1 121049Z 17002KT 23/21 A2995 RMK A01 T02290213  RH  091%=      5-min Rain = 0
KDO1 121050Z 17002KT 23/21 A2995 RMK A01 T02290213  RH  091%=      5-min Rain = 0
KDO1 121051Z 18002KT 23/21 A2994 RMK A01 T02290213  RH  091%=      5-min Rain = 0
KDO1 121052Z 18002KT 23/21 A2994 RMK A01 T02300213  RH  090%=      5-min Rain = 0
KDO1 121053Z 18002KT 23/21 A2994 RMK A01 T02290213  RH  090%=      5-min Rain = 0
KDO1 121054Z 18002KT 23/21 A2994 RMK A01 T02290213  RH  090%=      5-min Rain = 0
KDO1 121055Z 17003KT 23/21 A2994 RMK A01 T02290213  RH  090%=      5-min Rain = 0
KDO1 121056Z 17003KT 23/21 A2994 RMK A01 T02290213  RH  090%=      5-min Rain = 0
KDO1 121057Z 17003KT 23/21 A2994 RMK A01 T02290213  RH  090%=      5-min Rain = 0
KDO1 121058Z 17003KT 23/21 A2994 RMK A01 T02290213  RH  091%=      5-min Rain = 0
KDO1 121059Z 17003KT 23/21 A2994 RMK A01 T02300213  RH  091%=      5-min Rain = 0
KDO1 121100Z 17003KT 23/21 A2994 RMK A01 T02290213  RH  091%=      5-min Rain = 0
KDO1 121101Z 17003KT 23/21 A2994 RMK A01 T02290213  RH  091%=      5-min Rain = 0
KDO1 121102Z 17003KT 23/21 A2994 RMK A01 T02290213  RH  091%=      5-min Rain = 0
KDO1 121103Z 18003KT 23/21 A2994 RMK A01 T02290213  RH  091%=      5-min Rain = 0
KDO1 121104Z 18003KT 23/21 A2994 RMK A01 T02290213  RH  091%=      5-min Rain = 0
KDO1 121105Z 18004KT 23/21 A2994 RMK A01 T02290213  RH  091%=      5-min Rain = 0
KDO1 121106Z 18004KT 23/21 A2994 RMK A01 T02290213  RH  091%=      5-min Rain = 0
KDO1 121107Z 19004KT 23/21 A2994 RMK A01 T02280213  RH  091%=      5-min Rain = 0
KDO1 121108Z 19003KT 23/21 A2994 RMK A01 T02280212  RH  091%=      5-min Rain = 0
KDO1 121109Z 19003KT 23/21 A2994 RMK A01 T02280213  RH  091%=      5-min Rain = 0
KDO1 121110Z 19004KT 23/21 A2994 RMK A01 T02270212  RH  091%=      5-min Rain = 0
KDO1 121111Z 19003KT 23/21 A2994 RMK A01 T02270213  RH  091%=      5-min Rain = 0
KDO1 121112Z 19004KT 23/21 A2994 RMK A01 T02270213  RH  092%=      5-min Rain = 0
KDO1 121113Z 19004KT 23/21 A2994 RMK A01 T02270213  RH  092%=      5-min Rain = 0
KDO1 121114Z 20004KT 23/21 A2994 RMK A01 T02260212  RH  092%=      5-min Rain = 0
KDO1 121115Z 20004KT 23/21 A2994 RMK A01 T02260212  RH  092%=      5-min Rain = 0
KDO1 121116Z 20004KT 23/21 A2994 RMK A01 T02260212  RH  092%=      5-min Rain = 0
KDO1 121117Z 20004KT 23/21 A2994 RMK A01 T02260212  RH  092%=      5-min Rain = 0
KDO1 121118Z 19004KT 23/21 A2994 RMK A01 T02260213  RH  092%=      5-min Rain = 0
KDO1 121119Z 20004KT 23/21 A2994 RMK A01 T02260213  RH  092%=      5-min Rain = 0
KDO1 121120Z 20004KT 23/21 A2994 RMK A01 T02260213  RH  092%=      5-min Rain = 0
KDO1 121121Z 20004KT 23/21 A2994 RMK A01 T02260213  RH  092%=      5-min Rain = 0
KDO1 121122Z 21003KT 23/21 A2994 RMK A01 T02260212  RH  092%=      5-min Rain = 0
KDO1 121123Z 21003KT 23/21 A2995 RMK A01 T02260213  RH  092%=      5-min Rain = 0
KDO1 121124Z 22003KT 23/21 A2995 RMK A01 T02260213  RH  092%=      5-min Rain = 0
KDO1 121125Z 23002KT 23/21 A2995 RMK A01 T02260214  RH  093%=      5-min Rain = 0
KDO1 121126Z 23003KT 23/21 A2995 RMK A01 T02250214  RH  093%=      5-min Rain = 0
KDO1 121127Z 24002KT 23/21 A2995 RMK A01 T02250214  RH  094%=      5-min Rain = 0
KDO1 121128Z 26003KT 22/21 A2995 RMK A01 T02240214  RH  094%=      5-min Rain = 0
KDO1 121129Z 26003KT 22/22 A2995 RMK A01 T02240215  RH  094%=      5-min Rain = 0
KDO1 121130Z 26002KT 22/22 A2995 RMK A01 T02240215  RH  094%=      5-min Rain = 0
KDO1 121131Z 26002KT 23/22 A2995 RMK A01 T02250215  RH  094%=      5-min Rain = 0
KDO1 121132Z 25002KT 23/22 A2995 RMK A01 T02250215  RH  094%=      5-min Rain = 0
KDO1 121133Z 24001KT 23/22 A2995 RMK A01 T02250215  RH  094%=      5-min Rain = 0
KDO1 121134Z 21001KT 23/22 A2995 RMK A01 T02260215  RH  094%=      5-min Rain = 0
KDO1 121135Z 20001KT 23/22 A2995 RMK A01 T02260215  RH  094%=      5-min Rain = 0
KDO1 121136Z 21001KT 23/22 A2995 RMK A01 T02260215  RH  093%=      5-min Rain = 0
KDO1 121137Z 22001KT 23/22 A2995 RMK A01 T02260215  RH  093%=      5-min Rain = 0
KDO1 121138Z 24001KT 23/22 A2995 RMK A01 T02260215  RH  093%=      5-min Rain = 0
KDO1 121139Z 24001KT 23/22 A2995 RMK A01 T02260215  RH  093%=      5-min Rain = 0
KDO1 121140Z 25000KT 23/22 A2995 RMK A01 T02270215  RH  093%=      5-min Rain = 0
KDO1 121141Z 25001KT 23/22 A2995 RMK A01 T02270215  RH  093%=      5-min Rain = 0
KDO1 121142Z 24001KT 23/22 A2995 RMK A01 T02270215  RH  093%=      5-min Rain = 0
KDO1 121143Z 24000KT 23/22 A2995 RMK A01 T02270215  RH  093%=      5-min Rain = 0
KDO1 121144Z 21000KT 23/22 A2995 RMK A01 T02280215  RH  092%=      5-min Rain = 0
KDO1 121145Z 20001KT 23/21 A2996 RMK A01 T02280214  RH  092%=      5-min Rain = 0
KDO1 121146Z 16001KT 23/22 A2995 RMK A01 T02280216  RH  093%=      5-min Rain = 0
KDO1 121147Z 14001KT 23/22 A2995 RMK A01 T02280216  RH  093%=      5-min Rain = 0
KDO1 121148Z 13002KT 23/22 A2995 RMK A01 T02280216  RH  093%=      5-min Rain = 0
KDO1 121149Z 12002KT 23/22 A2995 RMK A01 T02270216  RH  094%=      5-min Rain = 0
KDO1 121150Z 12002KT 23/22 A2995 RMK A01 T02270216  RH  094%=      5-min Rain = 0
KDO1 121151Z 12002KT 23/22 A2995 RMK A01 T02260216  RH  094%=      5-min Rain = 0
KDO1 121152Z 14002KT 23/22 A2995 RMK A01 T02260216  RH  094%=      5-min Rain = 0
KDO1 121153Z 14002KT 23/22 A2995 RMK A01 T02260216  RH  094%=      5-min Rain = 0
KDO1 121154Z 14002KT 23/22 A2995 RMK A01 T02250216  RH  095%=      5-min Rain = 0
KDO1 121155Z 14002KT 23/22 A2995 RMK A01 T02250216  RH  095%=      5-min Rain = 0
KDO1 121156Z 16002KT 23/22 A2995 RMK A01 T02250216  RH  095%=      5-min Rain = 0
KDO1 121157Z 15002KT 23/22 A2995 RMK A01 T02250216  RH  095%=      5-min Rain = 0
KDO1 121158Z 15002KT 23/22 A2995 RMK A01 T02250215  RH  094%=      5-min Rain = 0
KDO1 121159Z 16002KT 23/22 A2995 RMK A01 T02250215  RH  094%=      5-min Rain = 0
KDO1 121200Z 16004KT 23/21 A2995 RMK A01 T02250213  RH  093%=      5-min Rain = 0
KDO1 121201Z 17004KT 23/21 A2995 RMK A01 T02250211  RH  091%=      5-min Rain = 0
KDO1 121202Z 17003KT 23/21 A2995 RMK A01 T02260210  RH  091%=      5-min Rain = 0
KDO1 121203Z 18003KT 23/21 A2995 RMK A01 T02270210  RH  090%=      5-min Rain = 0
KDO1 121204Z 17004KT 23/21 A2995 RMK A01 T02270210  RH  090%=      5-min Rain = 0
KDO1 121205Z 16004KT 23/21 A2995 RMK A01 T02280209  RH  089%=      5-min Rain = 0
KDO1 121206Z 18003KT 23/21 A2995 RMK A01 T02280209  RH  089%=      5-min Rain = 0
KDO1 121207Z 18004KT 23/21 A2995 RMK A01 T02280208  RH  089%=      5-min Rain = 0
KDO1 121208Z 19004KT 23/21 A2995 RMK A01 T02280208  RH  088%=      5-min Rain = 0
KDO1 121209Z 18004KT 23/21 A2995 RMK A01 T02280208  RH  088%=      5-min Rain = 0
KDO1 121210Z 19003KT 23/21 A2995 RMK A01 T02290208  RH  088%=      5-min Rain = 0
KDO1 121211Z 21003KT 23/21 A2995 RMK A01 T02280208  RH  088%=      5-min Rain = 0
KDO1 121212Z 21003KT 23/21 A2996 RMK A01 T02280209  RH  089%=      5-min Rain = 0
KDO1 121213Z 22003KT 23/21 A2996 RMK A01 T02280209  RH  089%=      5-min Rain = 0
KDO1 121214Z 22002KT 23/21 A2996 RMK A01 T02280209  RH  089%=      5-min Rain = 0
KDO1 121215Z 22002KT 23/21 A2996 RMK A01 T02280209  RH  089%=      5-min Rain = 0
KDO1 121216Z 22002KT 23/21 A2996 RMK A01 T02280209  RH  089%=      5-min Rain = 0
KDO1 121217Z 22002KT 23/21 A2996 RMK A01 T02270208  RH  089%=      5-min Rain = 0
KDO1 121218Z 22002KT 23/21 A2996 RMK A01 T02270209  RH  089%=      5-min Rain = 0
KDO1 121219Z 23001KT 23/21 A2996 RMK A01 T02280209  RH  089%=      5-min Rain = 0
KDO1 121220Z 24001KT 23/21 A2996 RMK A01 T02280208  RH  089%=      5-min Rain = 0
KDO1 121221Z 26002KT 23/21 A2996 RMK A01 T02280209  RH  089%=      5-min Rain = 0
KDO1 121222Z 27001KT 23/21 A2996 RMK A01 T02290209  RH  089%=      5-min Rain = 0
KDO1 121223Z 28002KT 23/21 A2996 RMK A01 T02280209  RH  089%=      5-min Rain = 0
KDO1 121224Z 29002KT 23/21 A2996 RMK A01 T02290209  RH  088%=      5-min Rain = 0
KDO1 121225Z 29002KT 23/21 A2996 RMK A01 T02290208  RH  088%=      5-min Rain = 0
KDO1 121226Z 30002KT 23/21 A2996 RMK A01 T02300208  RH  088%=      5-min Rain = 0
KDO1 121227Z 31002KT 23/21 A2997 RMK A01 T02300208  RH  088%=      5-min Rain = 0
KDO1 121228Z 32002KT 23/21 A2997 RMK A01 T02310209  RH  088%=      5-min Rain = 0
KDO1 121229Z 33003KT 23/21 A2997 RMK A01 T02310209  RH  087%=      5-min Rain = 0
KDO1 121230Z 33003KT 23/21 A2997 RMK A01 T02310209  RH  087%=      5-min Rain = 0
KDO1 121231Z 33003KT 23/21 A2997 RMK A01 T02320208  RH  086%=      5-min Rain = 0
KDO1 121232Z 34002KT 23/21 A2997 RMK A01 T02320208  RH  086%=      5-min Rain = 0
KDO1 121233Z 34002KT 23/21 A2997 RMK A01 T02330208  RH  086%=      5-min Rain = 0
KDO1 121234Z 35002KT 23/21 A2997 RMK A01 T02330208  RH  086%=      5-min Rain = 0
KDO1 121235Z 35002KT 23/21 A2997 RMK A01 T02330208  RH  086%=      5-min Rain = 0
KDO1 121236Z 35002KT 23/21 A2997 RMK A01 T02340207  RH  085%=      5-min Rain = 0
KDO1 121237Z 00002KT 23/21 A2997 RMK A01 T02340208  RH  085%=      5-min Rain = 0
KDO1 121238Z 00001KT 24/21 A2997 RMK A01 T02350208  RH  085%=      5-min Rain = 0
KDO1 121239Z 01001KT 24/21 A2997 RMK A01 T02350208  RH  085%=      5-min Rain = 0
KDO1 121240Z 03000KT 24/21 A2997 RMK A01 T02360207  RH  084%=      5-min Rain = 0
KDO1 121241Z 00000KT 24/21 A2997 RMK A01 T02360207  RH  084%=      5-min Rain = 0
KDO1 121242Z 11000KT 24/21 A2997 RMK A01 T02370207  RH  083%=      5-min Rain = 0
KDO1 121243Z 12001KT 24/21 A2997 RMK A01 T02380206  RH  082%=      5-min Rain = 0
KDO1 121244Z 12001KT 24/21 A2997 RMK A01 T02380207  RH  083%=      5-min Rain = 0
KDO1 121245Z 13001KT 24/21 A2997 RMK A01 T02390209  RH  083%=      5-min Rain = 0
KDO1 121246Z 15001KT 24/21 A2997 RMK A01 T02400209  RH  083%=      5-min Rain = 0
KDO1 121247Z 16001KT 24/21 A2997 RMK A01 T02400208  RH  083%=      5-min Rain = 0
KDO1 121248Z 16001KT 24/21 A2997 RMK A01 T02400208  RH  083%=      5-min Rain = 0
KDO1 121249Z 17001KT 24/21 A2997 RMK A01 T02400206  RH  082%=      5-min Rain = 0
KDO1 121250Z 17002KT 24/21 A2997 RMK A01 T02400207  RH  082%=      5-min Rain = 0
KDO1 121251Z 17002KT 24/21 A2997 RMK A01 T02400206  RH  081%=      5-min Rain = 0
KDO1 121252Z 17002KT 24/21 A2997 RMK A01 T02390205  RH  081%=      5-min Rain = 0
KDO1 121253Z 17002KT 24/21 A2997 RMK A01 T02390205  RH  082%=      5-min Rain = 0
KDO1 121254Z 16002KT 24/21 A2997 RMK A01 T02380206  RH  082%=      5-min Rain = 0
KDO1 121255Z 16002KT 24/21 A2997 RMK A01 T02380207  RH  083%=      5-min Rain = 0
KDO1 121256Z 15002KT 24/21 A2997 RMK A01 T02370208  RH  084%=      5-min Rain = 0
KDO1 121257Z 16003KT 24/21 A2997 RMK A01 T02370209  RH  084%=      5-min Rain = 0
KDO1 121258Z 16003KT 24/21 A2997 RMK A01 T02360209  RH  085%=      5-min Rain = 0
KDO1 121259Z 16003KT 24/21 A2997 RMK A01 T02360209  RH  085%=      5-min Rain = 0
KDO1 121300Z 17003KT 24/21 A2997 RMK A01 T02350209  RH  085%=      5-min Rain = 0
KDO1 121301Z 18002KT 24/21 A2997 RMK A01 T02350209  RH  085%=      5-min Rain = 0
KDO1 121302Z 18003KT 24/21 A2997 RMK A01 T02350208  RH  085%=      5-min Rain = 0
KDO1 121303Z 19003KT 24/21 A2997 RMK A01 T02350209  RH  085%=      5-min Rain = 0
KDO1 121304Z 19003KT 23/21 A2997 RMK A01 T02340209  RH  086%=      5-min Rain = 0
KDO1 121305Z 19003KT 23/21 A2997 RMK A01 T02340210  RH  086%=      5-min Rain = 0
KDO1 121306Z 20003KT 23/21 A2997 RMK A01 T02340209  RH  086%=      5-min Rain = 0
KDO1 121307Z 21003KT 23/21 A2997 RMK A01 T02340210  RH  086%=      5-min Rain = 0
KDO1 121308Z 21003KT 23/21 A2997 RMK A01 T02340209  RH  086%=      5-min Rain = 0
KDO1 121309Z 21004KT 23/21 A2997 RMK A01 T02330209  RH  086%=      5-min Rain = 0
KDO1 121310Z 21004KT 23/21 A2997 RMK A01 T02330209  RH  086%=      5-min Rain = 0
KDO1 121311Z 21004KT 23/21 A2997 RMK A01 T02330208  RH  086%=      5-min Rain = 0
KDO1 121312Z 21004KT 23/21 A2997 RMK A01 T02330208  RH  086%=      5-min Rain = 0
KDO1 121313Z 21004KT 23/21 A2997 RMK A01 T02330208  RH  086%=      5-min Rain = 0
KDO1 121314Z 21003KT 23/21 A2997 RMK A01 T02330208  RH  086%=      5-min Rain = 0
KDO1 121315Z 21003KT 23/21 A2997 RMK A01 T02330208  RH  086%=      5-min Rain = 0
KDO1 121316Z 20002KT 23/21 A2997 RMK A01 T02330209  RH  086%=      5-min Rain = 0
KDO1 121317Z 20002KT 23/21 A2997 RMK A01 T02330209  RH  087%=      5-min Rain = 0
KDO1 121318Z 20003KT 23/21 A2997 RMK A01 T02330209  RH  087%=      5-min Rain = 0
KDO1 121319Z 20002KT 23/21 A2997 RMK A01 T02330210  RH  087%=      5-min Rain = 0
KDO1 121320Z 20002KT 23/21 A2997 RMK A01 T02320209  RH  087%=      5-min Rain = 0
KDO1 121321Z 21002KT 23/21 A2997 RMK A01 T02330210  RH  087%=      5-min Rain = 0
KDO1 121322Z 21002KT 23/21 A2997 RMK A01 T02320210  RH  087%=      5-min Rain = 0
KDO1 121323Z 21002KT 23/21 A2997 RMK A01 T02320209  RH  087%=      5-min Rain = 0
KDO1 121324Z 21002KT 23/21 A2997 RMK A01 T02320209  RH  087%=      5-min Rain = 0
KDO1 121325Z 21001KT 23/21 A2997 RMK A01 T02320210  RH  087%=      5-min Rain = 0
KDO1 121326Z 22001KT 23/21 A2997 RMK A01 T02320210  RH  087%=      5-min Rain = 0
KDO1 121327Z 22001KT 23/21 A2997 RMK A01 T02320210  RH  088%=      5-min Rain = 0
KDO1 121328Z 23001KT 23/21 A2997 RMK A01 T02320211  RH  088%=      5-min Rain = 0
KDO1 121329Z 22000KT 23/21 A2997 RMK A01 T02320212  RH  088%=      5-min Rain = 0
KDO1 121330Z 25000KT 23/21 A2997 RMK A01 T02320211  RH  088%=      5-min Rain = 0
KDO1 121331Z 25000KT 23/21 A2997 RMK A01 T02320210  RH  088%=      5-min Rain = 0
KDO1 121332Z 00000KT 23/21 A2997 RMK A01 T02320210  RH  087%=      5-min Rain = 0
KDO1 121333Z 00000KT 23/21 A2997 RMK A01 T02320210  RH  088%=      5-min Rain = 0
KDO1 121334Z 00000KT 23/21 A2997 RMK A01 T02320209  RH  087%=      5-min Rain = 0
KDO1 121335Z 28000KT 23/21 A2997 RMK A01 T02320208  RH  086%=      5-min Rain = 0
KDO1 121336Z 29001KT 23/21 A2997 RMK A01 T02320207  RH  086%=      5-min Rain = 0
KDO1 121337Z 29001KT 23/21 A2997 RMK A01 T02320208  RH  086%=      5-min Rain = 0
KDO1 121338Z 29002KT 23/21 A2997 RMK A01 T02330208  RH  086%=      5-min Rain = 0
KDO1 121339Z 30002KT 23/21 A2997 RMK A01 T02340208  RH  086%=      5-min Rain = 0
KDO1 121340Z 30002KT 23/21 A2997 RMK A01 T02340207  RH  085%=      5-min Rain = 0
KDO1 121341Z 30002KT 24/21 A2997 RMK A01 T02360205  RH  082%=      5-min Rain = 0
KDO1 121342Z 31002KT 24/21 A2997 RMK A01 T02370206  RH  082%=      5-min Rain = 0
KDO1 121343Z 32002KT 24/20 A2997 RMK A01 T02400204  RH  081%=      5-min Rain = 0
KDO1 121344Z 30002KT 24/20 A2997 RMK A01 T02410204  RH  080%=      5-min Rain = 0
KDO1 121345Z 30001KT 24/20 A2997 RMK A01 T02420204  RH  079%=      5-min Rain = 0
KDO1 121346Z 31001KT 24/20 A2997 RMK A01 T02430203  RH  078%=      5-min Rain = 0
KDO1 121347Z 29001KT 24/20 A2997 RMK A01 T02440201  RH  077%=      5-min Rain = 0
KDO1 121348Z 31000KT 25/20 A2997 RMK A01 T02460202  RH  077%=      5-min Rain = 0
KDO1 121349Z 28001KT 25/20 A2997 RMK A01 T02480202  RH  076%=      5-min Rain = 0
KDO1 121350Z 26000KT 25/20 A2997 RMK A01 T02490201  RH  075%=      5-min Rain = 0
KDO1 121351Z 00000KT 25/20 A2997 RMK A01 T02500203  RH  075%=      5-min Rain = 0
KDO1 121352Z 26001KT 25/20 A2997 RMK A01 T02520202  RH  074%=      5-min Rain = 0
KDO1 121353Z 25001KT 25/20 A2997 RMK A01 T02540196  RH  070%=      5-min Rain = 0
KDO1 121354Z 27001KT 25/19 A2997 RMK A01 T02540194  RH  069%=      5-min Rain = 0
KDO1 121355Z 23001KT 26/19 A2997 RMK A01 T02560194  RH  069%=      5-min Rain = 0
KDO1 121356Z 25002KT 26/19 A2997 RMK A01 T02570193  RH  068%=      5-min Rain = 0
KDO1 121357Z 21002KT 26/19 A2997 RMK A01 T02590193  RH  067%=      5-min Rain = 0
KDO1 121358Z 21002KT 26/19 A2997 RMK A01 T02610192  RH  066%=      5-min Rain = 0
KDO1 121359Z 21001KT 26/19 A2997 RMK A01 T02620193  RH  066%=      5-min Rain = 0
KDO1 121400Z 19002KT 26/19 A2997 RMK A01 T02640189  RH  064%=      5-min Rain = 0
KDO1 121401Z 20002KT 27/19 A2997 RMK A01 T02650193  RH  065%=      5-min Rain = 0
KDO1 121402Z 18001KT 27/19 A2997 RMK A01 T02650194  RH  065%=      5-min Rain = 0
KDO1 121403Z 21002KT 27/19 A2997 RMK A01 T02650190  RH  063%=      5-min Rain = 0
KDO1 121404Z 21002KT 27/19 A2997 RMK A01 T02670192  RH  063%=      5-min Rain = 0
KDO1 121405Z 18002KT 27/19 A2997 RMK A01 T02680189  RH  062%=      5-min Rain = 0
KDO1 121406Z 19003KT 27/19 A2997 RMK A01 T02690189  RH  061%=      5-min Rain = 0
KDO1 121407Z 19002KT 27/19 A2997 RMK A01 T02700187  RH  060%=      5-min Rain = 0
KDO1 121408Z 19002KT 27/19 A2997 RMK A01 T02710189  RH  061%=      5-min Rain = 0
KDO1 121409Z 19003KT 27/19 A2997 RMK A01 T02710192  RH  062%=      5-min Rain = 0
KDO1 121410Z 19003KT 27/19 A2997 RMK A01 T02720190  RH  061%=      5-min Rain = 0
KDO1 121411Z 18003KT 27/19 A2997 RMK A01 T02720189  RH  060%=      5-min Rain = 0
KDO1 121412Z 17003KT 27/19 A2997 RMK A01 T02720189  RH  060%=      5-min Rain = 0
KDO1 121413Z 17003KT 27/19 A2997 RMK A01 T02730190  RH  060%=      5-min Rain = 0
KDO1 121414Z 18003KT 27/19 A2997 RMK A01 T02740190  RH  060%=      5-min Rain = 0
KDO1 121415Z 18002KT 28/19 A2997 RMK A01 T02760190  RH  060%=      5-min Rain = 0
KDO1 121416Z 17003KT 28/19 A2997 RMK A01 T02770190  RH  059%=      5-min Rain = 0
KDO1 121417Z 18002KT 28/19 A2997 RMK A01 T02770188  RH  058%=      5-min Rain = 0
KDO1 121418Z 20002KT 28/19 A2997 RMK A01 T02770188  RH  058%=      5-min Rain = 0
KDO1 121419Z 16001KT 28/19 A2997 RMK A01 T02770189  RH  059%=      5-min Rain = 0
KDO1 121420Z 16001KT 28/19 A2997 RMK A01 T02770190  RH  059%=      5-min Rain = 0
KDO1 121421Z 15002KT 28/19 A2997 RMK A01 T02780189  RH  058%=      5-min Rain = 0
KDO1 121422Z 16003KT 28/19 A2997 RMK A01 T02790191  RH  059%=      5-min Rain = 0
KDO1 121423Z 16002KT 28/19 A2997 RMK A01 T02800192  RH  059%=      5-min Rain = 0
KDO1 121424Z 14003KT 28/19 A2996 RMK A01 T02810193  RH  059%=      5-min Rain = 0
KDO1 121425Z 14003KT 28/19 A2996 RMK A01 T02830192  RH  058%=      5-min Rain = 0
KDO1 121426Z 15003KT 28/19 A2996 RMK A01 T02840191  RH  057%=      5-min Rain = 0
KDO1 121427Z 14003KT 29/19 A2996 RMK A01 T02850192  RH  057%=      5-min Rain = 0
KDO1 121428Z 17002KT 29/19 A2997 RMK A01 T02860191  RH  056%=      5-min Rain = 0
KDO1 121429Z 16002KT 29/19 A2997 RMK A01 T02870190  RH  056%=      5-min Rain = 0
KDO1 121430Z 17003KT 29/19 A2997 RMK A01 T02880187  RH  054%=      5-min Rain = 0
KDO1 121431Z 16003KT 29/19 A2997 RMK A01 T02900186  RH  053%=      5-min Rain = 0
KDO1 121432Z 17003KT 29/18 A2997 RMK A01 T02910180  RH  051%=      5-min Rain = 0
KDO1 121433Z 18003KT 29/18 A2996 RMK A01 T02910184  RH  053%=      5-min Rain = 0
KDO1 121434Z 15001KT 29/18 A2996 RMK A01 T02910183  RH  052%=      5-min Rain = 0
KDO1 121435Z 13004KT 29/19 A2996 RMK A01 T02910187  RH  054%=      5-min Rain = 0
KDO1 121436Z 14004KT 29/19 A2996 RMK A01 T02930185  RH  052%=      5-min Rain = 0
KDO1 121437Z 14003KT 29/18 A2996 RMK A01 T02940182  RH  051%=      5-min Rain = 0
KDO1 121438Z 17002KT 30/18 A2996 RMK A01 T02950183  RH  051%=      5-min Rain = 0
KDO1 121439Z 18003KT 30/18 A2996 RMK A01 T02950180  RH  050%=      5-min Rain = 0
KDO1 121440Z 16003KT 30/19 A2996 RMK A01 T02960185  RH  051%=      5-min Rain = 0
KDO1 121441Z 14002KT 30/18 A2996 RMK A01 T02960183  RH  050%=      5-min Rain = 0
KDO1 121442Z 14004KT 30/18 A2996 RMK A01 T02970182  RH  050%=      5-min Rain = 0
KDO1 121443Z 13002KT 30/18 A2996 RMK A01 T02970178  RH  049%=      5-min Rain = 0
KDO1 121444Z 16002KT 30/18 A2996 RMK A01 T02970180  RH  050%=      5-min Rain = 0
KDO1 121445Z 11001KT 30/18 A2996 RMK A01 T02970184  RH  051%=      5-min Rain = 0
KDO1 121446Z 15002KT 30/18 A2996 RMK A01 T02980184  RH  050%=      5-min Rain = 0
KDO1 121447Z 17002KT 30/18 A2996 RMK A01 T03000180  RH  049%=      5-min Rain = 0
KDO1 121448Z 17003KT 30/18 A2996 RMK A01 T03010178  RH  048%=      5-min Rain = 0
KDO1 121449Z 17002KT 30/18 A2996 RMK A01 T03010176  RH  047%=      5-min Rain = 0
KDO1 121450Z 18002KT 30/18 A2996 RMK A01 T03020178  RH  048%=      5-min Rain = 0
KDO1 121451Z 18003KT 30/18 A2996 RMK A01 T03020182  RH  048%=      5-min Rain = 0
KDO1 121452Z 14002KT 30/18 A2997 RMK A01 T03040180  RH  048%=      5-min Rain = 0
KDO1 121453Z 16003KT 30/18 A2997 RMK A01 T03040183  RH  048%=      5-min Rain = 0
KDO1 121454Z 18003KT 31/18 A2996 RMK A01 T03050181  RH  048%=      5-min Rain = 0
KDO1 121455Z 16003KT 31/18 A2996 RMK A01 T03050180  RH  047%=      5-min Rain = 0
KDO1 121456Z 18005KT 30/18 A2996 RMK A01 T03040183  RH  048%=      5-min Rain = 0
KDO1 121457Z 18003KT 30/18 A2996 RMK A01 T03040182  RH  048%=      5-min Rain = 0
KDO1 121458Z 18003KT 31/18 A2997 RMK A01 T03050183  RH  048%=      5-min Rain = 0
KDO1 121459Z 18003KT 30/18 A2997 RMK A01 T03040183  RH  048%=      5-min Rain = 0
KDO1 121500Z 18004KT 30/18 A2997 RMK A01 T03040178  RH  047%=      5-min Rain = 0
KDO1 121501Z 18004KT 31/18 A2997 RMK A01 T03050178  RH  047%=      5-min Rain = 0
KDO1 121502Z 18004KT 31/18 A2997 RMK A01 T03060179  RH  046%=      5-min Rain = 0
KDO1 121503Z 19004KT 31/18 A2997 RMK A01 T03070176  RH  045%=      5-min Rain = 0
KDO1 121504Z 16003KT 31/18 A2997 RMK A01 T03070178  RH  046%=      5-min Rain = 0
KDO1 121505Z 18004KT 31/18 A2997 RMK A01 T03070177  RH  046%=      5-min Rain = 0
KDO1 121506Z 18004KT 31/18 A2997 RMK A01 T03080180  RH  046%=      5-min Rain = 0
KDO1 121507Z 18004KT 31/18 A2997 RMK A01 T03100179  RH  046%=      5-min Rain = 0
KDO1 121508Z 18003KT 31/18 A2997 RMK A01 T03100180  RH  046%=      5-min Rain = 0
KDO1 121509Z 17004KT 31/18 A2997 RMK A01 T03110180  RH  046%=      5-min Rain = 0
KDO1 121510Z 17004KT 31/18 A2997 RMK A01 T03120179  RH  045%=      5-min Rain = 0
KDO1 121511Z 17003KT 31/18 A2997 RMK A01 T03110178  RH  045%=      5-min Rain = 0
KDO1 121512Z 17003KT 31/18 A2997 RMK A01 T03110177  RH  045%=      5-min Rain = 0
KDO1 121513Z 19001KT 31/18 A2997 RMK A01 T03110175  RH  044%=      5-min Rain = 0
KDO1 121514Z 22002KT 31/18 A2997 RMK A01 T03120177  RH  045%=      5-min Rain = 0
KDO1 121515Z 20001KT 31/18 A2997 RMK A01 T03120179  RH  045%=      5-min Rain = 0
KDO1 121516Z 18002KT 31/18 A2997 RMK A01 T03120179  RH  045%=      5-min Rain = 0
KDO1 121517Z 22002KT 31/18 A2997 RMK A01 T03140177  RH  044%=      5-min Rain = 0
KDO1 121518Z 22001KT 31/18 A2997 RMK A01 T03140179  RH  044%=      5-min Rain = 0
KDO1 121519Z 20002KT 32/18 A2997 RMK A01 T03150177  RH  044%=      5-min Rain = 0
KDO1 121520Z 18002KT 32/18 A2997 RMK A01 T03170178  RH  044%=      5-min Rain = 0
KDO1 121521Z 15002KT 32/18 A2997 RMK A01 T03180179  RH  044%=      5-min Rain = 0
KDO1 121522Z 14002KT 32/18 A2997 RMK A01 T03190181  RH  044%=      5-min Rain = 0
KDO1 121523Z 18002KT 32/18 A2997 RMK A01 T03210181  RH  043%=      5-min Rain = 0
KDO1 121524Z 17005KT 32/18 A2997 RMK A01 T03220181  RH  043%=      5-min Rain = 0
KDO1 121525Z 15006KT 32/18 A2997 RMK A01 T03230184  RH  044%=      5-min Rain = 0
KDO1 121526Z 14005KT 32/19 A2997 RMK A01 T03230185  RH  044%=      5-min Rain = 0
KDO1 121527Z 16005KT 32/18 A2997 RMK A01 T03240182  RH  043%=      5-min Rain = 0
KDO1 121528Z 17004KT 32/18 A2997 RMK A01 T03230180  RH  043%=      5-min Rain = 0
KDO1 121529Z 17005KT 32/18 A2997 RMK A01 T03230183  RH  044%=      5-min Rain = 0
KDO1 121530Z 15004KT 32/18 A2997 RMK A01 T03230183  RH  044%=      5-min Rain = 0
KDO1 121531Z 17005KT 32/18 A2997 RMK A01 T03240182  RH  043%=      5-min Rain = 0
KDO1 121532Z 17006KT 33/18 A2997 RMK A01 T03260180  RH  042%=      5-min Rain = 0
KDO1 121533Z 19005KT 33/18 A2997 RMK A01 T03260180  RH  042%=      5-min Rain = 0
KDO1 121534Z 23003KT 33/18 A2997 RMK A01 T03260179  RH  042%=      5-min Rain = 0
KDO1 121535Z 19005KT 33/18 A2997 RMK A01 T03250178  RH  042%=      5-min Rain = 0
KDO1 121536Z 19004KT 33/18 A2997 RMK A01 T03250177  RH  041%=      5-min Rain = 0
KDO1 121537Z 21006KT 32/18 A2997 RMK A01 T03240176  RH  041%=      5-min Rain = 0
KDO1 121538Z 20004KT 33/18 A2997 RMK A01 T03250178  RH  042%=      5-min Rain = 0
KDO1 121539Z 16005KT 33/18 A2997 RMK A01 T03250179  RH  042%=      5-min Rain = 0
KDO1 121540Z 18007KT 33/18 A2997 RMK A01 T03280178  RH  041%=      5-min Rain = 0
KDO1 121541Z 18007KT 33/18 A2997 RMK A01 T03290179  RH  041%=      5-min Rain = 0
KDO1 121542Z 20007KT 33/18 A2997 RMK A01 T03300178  RH  040%=      5-min Rain = 0
KDO1 121543Z 18008KT 33/18 A2997 RMK A01 T03310179  RH  040%=      5-min Rain = 0
KDO1 121544Z 16004KT 33/18 A2997 RMK A01 T03300178  RH  040%=      5-min Rain = 0
KDO1 121545Z 17005KT 33/18 A2997 RMK A01 T03300180  RH  041%=      5-min Rain = 0
KDO1 121546Z 14008KT 33/18 A2997 RMK A01 T03310183  RH  041%=      5-min Rain = 0
KDO1 121547Z 14007KT 33/18 A2997 RMK A01 T03320182  RH  041%=      5-min Rain = 0
KDO1 121548Z 13007KT 33/18 A2997 RMK A01 T03320183  RH  041%=      5-min Rain = 0
KDO1 121549Z 12007KT 33/18 A2997 RMK A01 T03320182  RH  041%=      5-min Rain = 0
KDO1 121550Z 12005KT 33/18 A2997 RMK A01 T03310183  RH  041%=      5-min Rain = 0
KDO1 121551Z 16005KT 33/19 A2997 RMK A01 T03310185  RH  042%=      5-min Rain = 0
KDO1 121552Z 15004KT 33/19 A2997 RMK A01 T03330185  RH  042%=      5-min Rain = 0
KDO1 121553Z 14003KT 33/19 A2997 RMK A01 T03340186  RH  042%=      5-min Rain = 0
KDO1 121554Z 12005KT 34/18 A2997 RMK A01 T03360184  RH  041%=      5-min Rain = 0
KDO1 121555Z 13005KT 34/19 A2997 RMK A01 T03370185  RH  041%=      5-min Rain = 0
KDO1 121556Z 16005KT 34/19 A2997 RMK A01 T03380186  RH  041%=      5-min Rain = 0
KDO1 121557Z 19005KT 34/18 A2997 RMK A01 T03400181  RH  039%=      5-min Rain = 0
KDO1 121558Z 16004KT 34/18 A2997 RMK A01 T03380181  RH  039%=      5-min Rain = 0
KDO1 121559Z 16005KT 34/19 A2997 RMK A01 T03380185  RH  040%=      5-min Rain = 0
KDO1 121600Z 17007KT 34/18 A2997 RMK A01 T03380182  RH  040%=      5-min Rain = 0
KDO1 121601Z 16007KT 34/18 A2997 RMK A01 T03380182  RH  040%=      5-min Rain = 0
KDO1 121602Z 18003KT 34/18 A2997 RMK A01 T03370179  RH  039%=      5-min Rain = 0
KDO1 121603Z 16003KT 34/18 A2997 RMK A01 T03360181  RH  040%=      5-min Rain = 0
KDO1 121604Z 16005KT 34/18 A2997 RMK A01 T03370183  RH  040%=      5-min Rain = 0
KDO1 121605Z 17006KT 34/18 A2997 RMK A01 T03380182  RH  040%=      5-min Rain = 0
KDO1 121606Z 20005KT 34/18 A2997 RMK A01 T03370180  RH  039%=      5-min Rain = 0
KDO1 121607Z 18005KT 34/19 A2997 RMK A01 T03350185  RH  041%=      5-min Rain = 0
KDO1 121608Z 17006KT 34/19 A2997 RMK A01 T03380185  RH  041%=      5-min Rain = 0
KDO1 121609Z 16006KT 34/18 A2997 RMK A01 T03390183  RH  040%=      5-min Rain = 0
KDO1 121610Z 17005KT 34/19 A2997 RMK A01 T03400185  RH  040%=      5-min Rain = 0
KDO1 121611Z 18005KT 34/18 A2997 RMK A01 T03400184  RH  040%=      5-min Rain = 0
KDO1 121612Z 19004KT 34/19 A2997 RMK A01 T03400185  RH  040%=      5-min Rain = 0
KDO1 121613Z 19006KT 34/18 A2997 RMK A01 T03400179  RH  039%=      5-min Rain = 0
KDO1 121614Z 20004KT 34/18 A2997 RMK A01 T03390178  RH  038%=      5-min Rain = 0
KDO1 121615Z 15002KT 34/18 A2997 RMK A01 T03390179  RH  039%=      5-min Rain = 0
KDO1 121616Z 16004KT 34/18 A2997 RMK A01 T03400183  RH  039%=      5-min Rain = 0
KDO1 121617Z 14004KT 34/19 A2996 RMK A01 T03420185  RH  040%=      5-min Rain = 0
KDO1 121618Z 14004KT 34/19 A2996 RMK A01 T03440185  RH  039%=      5-min Rain = 0
KDO1 121619Z 13003KT 34/18 A2996 RMK A01 T03440184  RH  039%=      5-min Rain = 0
KDO1 121620Z 13005KT 34/19 A2996 RMK A01 T03440187  RH  040%=      5-min Rain = 0
KDO1 121621Z 13005KT 35/19 A2996 RMK A01 T03460187  RH  039%=      5-min Rain = 0
KDO1 121622Z 16007KT 35/18 A2996 RMK A01 T03480184  RH  038%=      5-min Rain = 0
KDO1 121623Z 16005KT 35/18 A2996 RMK A01 T03480183  RH  038%=      5-min Rain = 0
KDO1 121624Z 17006KT 35/18 A2996 RMK A01 T03480181  RH  037%=      5-min Rain = 0
KDO1 121625Z 16006KT 35/19 A2996 RMK A01 T03480185  RH  038%=      5-min Rain = 0
KDO1 121626Z 17005KT 35/18 A2996 RMK A01 T03490183  RH  038%=      5-min Rain = 0
KDO1 121627Z 18005KT 35/18 A2996 RMK A01 T03500181  RH  037%=      5-min Rain = 0
KDO1 121628Z 16003KT 35/18 A2996 RMK A01 T03500180  RH  037%=      5-min Rain = 0
KDO1 121629Z 15003KT 35/18 A2996 RMK A01 T03500182  RH  037%=      5-min Rain = 0
KDO1 121630Z 13007KT 35/18 A2996 RMK A01 T03500180  RH  037%=      5-min Rain = 0
KDO1 121631Z 14007KT 35/18 A2996 RMK A01 T03480182  RH  037%=      5-min Rain = 0
KDO1 121632Z 16005KT 35/18 A2996 RMK A01 T03480182  RH  038%=      5-min Rain = 0
KDO1 121633Z 16005KT 35/19 A2996 RMK A01 T03490186  RH  038%=      5-min Rain = 0
KDO1 121634Z 14006KT 35/18 A2996 RMK A01 T03530184  RH  037%=      5-min Rain = 0
KDO1 121635Z 12007KT 35/18 A2996 RMK A01 T03530183  RH  037%=      5-min Rain = 0
KDO1 121636Z 13006KT 35/18 A2996 RMK A01 T03540183  RH  037%=      5-min Rain = 0
KDO1 121637Z 12007KT 35/19 A2996 RMK A01 T03530186  RH  037%=      5-min Rain = 0
KDO1 121638Z 13007KT 36/19 A2996 RMK A01 T03550185  RH  037%=      5-min Rain = 0
KDO1 121639Z 16005KT 35/19 A2996 RMK A01 T03540185  RH  037%=      5-min Rain = 0
KDO1 121640Z 15005KT 35/18 A2996 RMK A01 T03540183  RH  036%=      5-min Rain = 0
KDO1 121641Z 16007KT 36/18 A2996 RMK A01 T03550181  RH  036%=      5-min Rain = 0
KDO1 121642Z 16007KT 36/18 A2996 RMK A01 T03550180  RH  036%=      5-min Rain = 0
KDO1 121643Z 15009KT 36/18 A2996 RMK A01 T03560179  RH  035%=      5-min Rain = 0
KDO1 121644Z 15007KT 36/18 A2996 RMK A01 T03560178  RH  035%=      5-min Rain = 0
KDO1 121645Z 16006KT 36/18 A2996 RMK A01 T03560182  RH  036%=      5-min Rain = 0
KDO1 121646Z 15007KT 36/19 A2996 RMK A01 T03600185  RH  036%=      5-min Rain = 0
KDO1 121647Z 15007KT 36/19 A2996 RMK A01 T03610186  RH  036%=      5-min Rain = 0
KDO1 121648Z 15008KT 36/19 A2996 RMK A01 T03620186  RH  036%=      5-min Rain = 0
KDO1 121649Z 17008KT 36/18 A2996 RMK A01 T03600183  RH  035%=      5-min Rain = 0
KDO1 121650Z 15007KT 36/18 A2996 RMK A01 T03580178  RH  035%=      5-min Rain = 0
KDO1 121651Z 16006KT 36/18 A2996 RMK A01 T03580177  RH  034%=      5-min Rain = 0
KDO1 121652Z 14009KT 36/18 A2996 RMK A01 T03590176  RH  034%=      5-min Rain = 0
KDO1 121653Z 13008KT 36/17 A2996 RMK A01 T03570172  RH  034%=      5-min Rain = 0
KDO1 121654Z 13006KT 35/17 A2996 RMK A01 T03520171  RH  034%=      5-min Rain = 0
KDO1 121655Z 13006KT 35/17 A2996 RMK A01 T03500174  RH  035%=      5-min Rain = 0
KDO1 121656Z 13007KT 35/17 A2996 RMK A01 T03500172  RH  035%=      5-min Rain = 0
KDO1 121657Z 14010KT 35/17 A2996 RMK A01 T03500172  RH  035%=      5-min Rain = 0
KDO1 121658Z 14009KT 35/17 A2996 RMK A01 T03510171  RH  034%=      5-min Rain = 0
KDO1 121659Z 15010KT 36/17 A2996 RMK A01 T03550171  RH  034%=      5-min Rain = 0
KDO1 121700Z 14009KT 36/17 A2995 RMK A01 T03560169  RH  033%=      5-min Rain = 0
KDO1 121701Z 14008G14KT 36/17 A2995 RMK A01 T03550172  RH  034%=      5-min Rain = 0
KDO1 121702Z 15010KT 36/17 A2995 RMK A01 T03550169  RH  033%=      5-min Rain = 0
KDO1 121703Z 16011KT 35/17 A2995 RMK A01 T03530168  RH  033%=      5-min Rain = 0
KDO1 121704Z 16010KT 35/17 A2995 RMK A01 T03510166  RH  033%=      5-min Rain = 0
KDO1 121705Z 16012KT 35/17 A2996 RMK A01 T03500165  RH  033%=      5-min Rain = 0
KDO1 121706Z 15011KT 35/16 A2996 RMK A01 T03490163  RH  033%=      5-min Rain = 0
KDO1 121707Z 15010KT 35/16 A2996 RMK A01 T03490162  RH  033%=      5-min Rain = 0
KDO1 121708Z 14009G14KT 35/16 A2996 RMK A01 T03520164  RH  033%=      5-min Rain = 0
KDO1 121709Z 15012KT 36/16 A2996 RMK A01 T03570164  RH  032%=      5-min Rain = 0
KDO1 121710Z 14011KT 36/16 A2996 RMK A01 T03590164  RH  031%=      5-min Rain = 0
KDO1 121711Z 14011KT 36/16 A2996 RMK A01 T03610161  RH  031%=      5-min Rain = 0
KDO1 121712Z 14011KT 36/16 A2996 RMK A01 T03610162  RH  031%=      5-min Rain = 0
KDO1 121713Z 14010KT 36/16 A2996 RMK A01 T03630164  RH  031%=      5-min Rain = 0
KDO1 121714Z 14010KT 36/16 A2996 RMK A01 T03640164  RH  031%=      5-min Rain = 0
KDO1 121715Z 15010KT 37/16 A2996 RMK A01 T03650163  RH  030%=      5-min Rain = 0
KDO1 121716Z 14010KT 37/16 A2996 RMK A01 T03650161  RH  030%=      5-min Rain = 0
KDO1 121717Z 16009KT 36/16 A2996 RMK A01 T03640163  RH  030%=      5-min Rain = 0
KDO1 121718Z 14010KT 36/16 A2996 RMK A01 T03640160  RH  030%=      5-min Rain = 0
KDO1 121719Z 13009KT 36/16 A2996 RMK A01 T03600158  RH  030%=      5-min Rain = 0
KDO1 121720Z 13008KT 36/16 A2996 RMK A01 T03590161  RH  031%=      5-min Rain = 0
KDO1 121721Z 15008KT 36/16 A2996 RMK A01 T03620161  RH  030%=      5-min Rain = 0
KDO1 121722Z 16007KT 36/16 A2996 RMK A01 T03630162  RH  030%=      5-min Rain = 0
KDO1 121723Z 13008KT 36/16 A2996 RMK A01 T03640160  RH  030%=      5-min Rain = 0
KDO1 121724Z 15009KT 37/16 A2996 RMK A01 T03650157  RH  029%=      5-min Rain = 0
KDO1 121725Z 15013KT 37/16 A2996 RMK A01 T03650159  RH  029%=      5-min Rain = 0
KDO1 121726Z 15013KT 37/16 A2996 RMK A01 T03650155  RH  029%=      5-min Rain = 0
KDO1 121727Z 14011KT 36/15 A2996 RMK A01 T03640153  RH  029%=      5-min Rain = 0
KDO1 121728Z 14009KT 36/15 A2996 RMK A01 T03630154  RH  029%=      5-min Rain = 0
KDO1 121729Z 13010KT 36/16 A2996 RMK A01 T03640156  RH  029%=      5-min Rain = 0
KDO1 121730Z 14010KT 37/15 A2996 RMK A01 T03650153  RH  028%=      5-min Rain = 0
KDO1 121731Z 14009KT 37/15 A2996 RMK A01 T03650154  RH  029%=      5-min Rain = 0
KDO1 121732Z 14006KT 37/16 A2996 RMK A01 T03650156  RH  029%=      5-min Rain = 0
KDO1 121733Z 15004G9KT 37/16 A2996 RMK A01 T03670158  RH  029%=      5-min Rain = 0
KDO1 121734Z 14010KT 37/16 A2996 RMK A01 T03690160  RH  029%=      5-min Rain = 0
KDO1 121735Z 12013KT 37/17 A2996 RMK A01 T03690169  RH  031%=      5-min Rain = 0
KDO1 121736Z 13011KT 37/17 A2996 RMK A01 T03670172  RH  032%=      5-min Rain = 0
KDO1 121737Z 13009KT 37/17 A2996 RMK A01 T03660170  RH  032%=      5-min Rain = 0
KDO1 121738Z 13009KT 37/17 A2996 RMK A01 T03650171  RH  032%=      5-min Rain = 0
KDO1 121739Z 13009KT 36/17 A2996 RMK A01 T03640169  RH  032%=      5-min Rain = 0
KDO1 121740Z 12008KT 36/17 A2996 RMK A01 T03630172  RH  033%=      5-min Rain = 0
KDO1 121741Z 13008KT 37/18 A2996 RMK A01 T03660175  RH  033%=      5-min Rain = 0
KDO1 121742Z 15010KT 37/16 A2996 RMK A01 T03700163  RH  029%=      5-min Rain = 0
KDO1 121743Z 16010KT 37/15 A2996 RMK A01 T03720153  RH  027%=      5-min Rain = 0
KDO1 121744Z 16010KT 37/15 A2996 RMK A01 T03710151  RH  027%=      5-min Rain = 0
KDO1 121745Z 15009KT 37/15 A2996 RMK A01 T03700151  RH  027%=      5-min Rain = 0
KDO1 121746Z 16007KT 37/15 A2996 RMK A01 T03690150  RH  027%=      5-min Rain = 0
KDO1 121747Z 17009KT 37/15 A2996 RMK A01 T03680150  RH  027%=      5-min Rain = 0
KDO1 121748Z 17011KT 37/15 A2996 RMK A01 T03680150  RH  027%=      5-min Rain = 0
KDO1 121749Z 18007KT 37/15 A2996 RMK A01 T03690145  RH  026%=      5-min Rain = 0
KDO1 121750Z 17009KT 37/15 A2996 RMK A01 T03700148  RH  027%=      5-min Rain = 0
KDO1 121751Z 18005KT 37/15 A2996 RMK A01 T03680150  RH  027%=      5-min Rain = 0
KDO1 121752Z 17007KT 37/15 A2996 RMK A01 T03650150  RH  028%=      5-min Rain = 0
KDO1 121753Z 16006KT 36/15 A2996 RMK A01 T03640152  RH  028%=      5-min Rain = 0
KDO1 121754Z 17009KT 37/16 A2996 RMK A01 T03650155  RH  029%=      5-min Rain = 0
KDO1 121755Z 18009KT 37/15 A2996 RMK A01 T03680154  RH  028%=      5-min Rain = 0
KDO1 121756Z 19009KT 37/16 A2996 RMK A01 T03690155  RH  028%=      5-min Rain = 0
KDO1 121757Z 17007KT 37/16 A2996 RMK A01 T03690157  RH  029%=      5-min Rain = 0
KDO1 121758Z 14009KT 37/16 A2996 RMK A01 T03700160  RH  029%=      5-min Rain = 0
KDO1 121759Z 12008KT 37/17 A2996 RMK A01 T03710168  RH  030%=      5-min Rain = 0
KDO1 121800Z 13011KT 37/17 A2996 RMK A01 T03710169  RH  031%=      5-min Rain = 0
KDO1 121801Z 12009KT 37/17 A2996 RMK A01 T03700167  RH  030%=      5-min Rain = 0
KDO1 121802Z 11008G14KT 37/17 A2996 RMK A01 T03690173  RH  032%=      5-min Rain = 0
KDO1 121803Z 11012KT 37/17 A2996 RMK A01 T03720170  RH  030%=      5-min Rain = 0
KDO1 121804Z 11009KT 37/17 A2996 RMK A01 T03720169  RH  030%=      5-min Rain = 0
KDO1 121805Z 09010KT 37/17 A2996 RMK A01 T03710167  RH  030%=      5-min Rain = 0
KDO1 121806Z 13012KT 37/17 A2996 RMK A01 T03700169  RH  031%=      5-min Rain = 0
KDO1 121807Z 13009KT 37/17 A2996 RMK A01 T03720169  RH  030%=      5-min Rain = 0
KDO1 121808Z 13007KT 37/17 A2996 RMK A01 T03740171  RH  030%=      5-min Rain = 0
KDO1 121809Z 13009KT 38/17 A2996 RMK A01 T03760171  RH  030%=      5-min Rain = 0
KDO1 121810Z 13010KT 38/17 A2996 RMK A01 T03750167  RH  029%=      5-min Rain = 0
KDO1 121811Z 15009KT 37/17 A2996 RMK A01 T03730168  RH  030%=      5-min Rain = 0
KDO1 121812Z 17008KT 37/16 A2997 RMK A01 T03730164  RH  029%=      5-min Rain = 0
KDO1 121813Z 18007KT 37/16 A2996 RMK A01 T03720162  RH  029%=      5-min Rain = 0
KDO1 121814Z 13008KT 37/17 A2996 RMK A01 T03680165  RH  030%=      5-min Rain = 0
KDO1 121815Z 13012KT 37/17 A2996 RMK A01 T03710170  RH  031%=      5-min Rain = 0
KDO1 121816Z 13008KT 37/17 A2997 RMK A01 T03730165  RH  029%=      5-min Rain = 0
KDO1 121817Z 13007KT 37/17 A2996 RMK A01 T03720167  RH  030%=      5-min Rain = 0
KDO1 121818Z 14007KT 37/17 A2996 RMK A01 T03720167  RH  030%=      5-min Rain = 0
KDO1 121819Z 13010KT 37/17 A2996 RMK A01 T03730167  RH  030%=      5-min Rain = 0
KDO1 121820Z 14008KT 37/17 A2996 RMK A01 T03730167  RH  030%=      5-min Rain = 0
KDO1 121821Z 12007KT 37/17 A2996 RMK A01 T03720166  RH  030%=      5-min Rain = 0
KDO1 121822Z 12006KT 37/17 A2996 RMK A01 T03720166  RH  030%=      5-min Rain = 0
KDO1 121823Z 13003KT 37/16 A2996 RMK A01 T03710164  RH  029%=      5-min Rain = 0
KDO1 121824Z 08007G12KT 37/17 A2996 RMK A01 T03700167  RH  030%=      5-min Rain = 0
KDO1 121825Z 10010G15KT 37/16 A2996 RMK A01 T03710164  RH  030%=      5-min Rain = 0
KDO1 121826Z 11013KT 37/16 A2996 RMK A01 T03700164  RH  030%=      5-min Rain = 0
KDO1 121827Z 11008KT 37/16 A2996 RMK A01 T03690163  RH  030%=      5-min Rain = 0
KDO1 121828Z 12010KT 37/17 A2996 RMK A01 T03680167  RH  031%=      5-min Rain = 0
KDO1 121829Z 12010KT 37/17 A2996 RMK A01 T03710167  RH  030%=      5-min Rain = 0
KDO1 121830Z 13007KT 37/17 A2996 RMK A01 T03730166  RH  030%=      5-min Rain = 0
KDO1 121831Z 16009KT 37/17 A2995 RMK A01 T03730166  RH  030%=      5-min Rain = 0
KDO1 121832Z 14010KT 37/16 A2995 RMK A01 T03740164  RH  029%=      5-min Rain = 0
KDO1 121833Z 16011KT 38/17 A2995 RMK A01 T03770168  RH  029%=      5-min Rain = 0
KDO1 121834Z 14009G14KT 38/17 A2995 RMK A01 T03800168  RH  029%=      5-min Rain = 0
KDO1 121835Z 13013KT 38/17 A2995 RMK A01 T03810170  RH  029%=      5-min Rain = 0
KDO1 121836Z 12016KT 38/17 A2995 RMK A01 T03800169  RH  029%=      5-min Rain = 0
KDO1 121837Z 12015KT 38/17 A2995 RMK A01 T03770168  RH  029%=      5-min Rain = 0
KDO1 121838Z 12013KT 38/17 A2995 RMK A01 T03750167  RH  030%=      5-min Rain = 0
KDO1 121839Z 13011KT 37/17 A2995 RMK A01 T03730171  RH  030%=      5-min Rain = 0
KDO1 121840Z 13010KT 38/17 A2995 RMK A01 T03750170  RH  030%=      5-min Rain = 0
KDO1 121841Z 12012KT 38/17 A2995 RMK A01 T03760171  RH  030%=      5-min Rain = 0
KDO1 121842Z 14014KT 38/17 A2995 RMK A01 T03760171  RH  030%=      5-min Rain = 0
KDO1 121843Z 14015KT 38/17 A2995 RMK A01 T03760169  RH  030%=      5-min Rain = 0
KDO1 121844Z 14014G19KT 38/17 A2995 RMK A01 T03760167  RH  029%=      5-min Rain = 0
KDO1 121845Z 13013KT 38/17 A2995 RMK A01 T03750169  RH  030%=      5-min Rain = 0
KDO1 121846Z 14010KT 38/17 A2995 RMK A01 T03750171  RH  030%=      5-min Rain = 0
KDO1 121847Z 14011KT 38/17 A2995 RMK A01 T03770170  RH  030%=      5-min Rain = 0
KDO1 121848Z 14009KT 38/17 A2995 RMK A01 T03780169  RH  029%=      5-min Rain = 0
KDO1 121849Z 12011KT 38/17 A2995 RMK A01 T03770173  RH  030%=      5-min Rain = 0
KDO1 121850Z 12011KT 38/17 A2995 RMK A01 T03800174  RH  030%=      5-min Rain = 0
KDO1 121851Z 12011KT 38/17 A2995 RMK A01 T03820171  RH  029%=      5-min Rain = 0
KDO1 121852Z 10009KT 38/17 A2995 RMK A01 T03810173  RH  030%=      5-min Rain = 0
KDO1 121853Z 10008KT 38/17 A2995 RMK A01 T03810170  RH  029%=      5-min Rain = 0
KDO1 121854Z 10010KT 38/17 A2995 RMK A01 T03790170  RH  029%=      5-min Rain = 0
KDO1 121855Z 11010G15KT 38/17 A2995 RMK A01 T03780173  RH  030%=      5-min Rain = 0
KDO1 121856Z 13013KT 38/17 A2995 RMK A01 T03800172  RH  030%=      5-min Rain = 0
KDO1 121857Z 13013G19KT 38/17 A2995 RMK A01 T03810171  RH  029%=      5-min Rain = 0
KDO1 121858Z 13013KT 38/17 A2995 RMK A01 T03810167  RH  028%=      5-min Rain = 0
KDO1 121859Z 14011KT 38/17 A2995 RMK A01 T03790168  RH  029%=      5-min Rain = 0
KDO1 121900Z 14010KT 38/17 A2995 RMK A01 T03800168  RH  029%=      5-min Rain = 0
KDO1 121901Z 13011KT 38/17 A2994 RMK A01 T03800171  RH  029%=      5-min Rain = 0
KDO1 121902Z 13012KT 38/17 A2994 RMK A01 T03820170  RH  029%=      5-min Rain = 0
KDO1 121903Z 13011KT 38/17 A2994 RMK A01 T03820166  RH  028%=      5-min Rain = 0
KDO1 121904Z 14014KT 38/17 A2994 RMK A01 T03810166  RH  028%=      5-min Rain = 0
KDO1 121905Z 15011KT 38/17 A2994 RMK A01 T03810166  RH  028%=      5-min Rain = 0
KDO1 121906Z 13012KT 38/17 A2994 RMK A01 T03830166  RH  028%=      5-min Rain = 0
KDO1 121907Z 14012KT 38/17 A2993 RMK A01 T03840165  RH  028%=      5-min Rain = 0
KDO1 121908Z 14008KT 38/17 A2993 RMK A01 T03830167  RH  028%=      5-min Rain = 0
KDO1 121909Z 15010KT 38/17 A2993 RMK A01 T03830167  RH  028%=      5-min Rain = 0
KDO1 121910Z 16010KT 38/17 A2993 RMK A01 T03840166  RH  028%=      5-min Rain = 0
KDO1 121911Z 15012KT 39/17 A2993 RMK A01 T03860167  RH  028%=      5-min Rain = 0
KDO1 121912Z 16012KT 39/17 A2993 RMK A01 T03860168  RH  028%=      5-min Rain = 0
KDO1 121913Z 18009KT 39/16 A2993 RMK A01 T03870164  RH  027%=      5-min Rain = 0
KDO1 121914Z 14010KT 39/17 A2993 RMK A01 T03870167  RH  028%=      5-min Rain = 0
KDO1 121915Z 13009KT 39/17 A2993 RMK A01 T03880169  RH  028%=      5-min Rain = 0
KDO1 121916Z 13013G19KT 39/17 A2993 RMK A01 T03880171  RH  028%=      5-min Rain = 0
KDO1 121917Z 15011KT 39/17 A2993 RMK A01 T03890170  RH  028%=      5-min Rain = 0
KDO1 121918Z 17012G17KT 39/17 A2993 RMK A01 T03900168  RH  027%=      5-min Rain = 0
KDO1 121919Z 17010KT 39/17 A2993 RMK A01 T03900167  RH  027%=      5-min Rain = 0
KDO1 121920Z 16012KT 39/17 A2993 RMK A01 T03900166  RH  027%=      5-min Rain = 0
KDO1 121921Z 17012KT 39/16 A2993 RMK A01 T03900164  RH  027%=      5-min Rain = 0
KDO1 121922Z 18014KT 39/17 A2993 RMK A01 T03910165  RH  027%=      5-min Rain = 0
KDO1 121923Z 18011G16KT 39/16 A2993 RMK A01 T03920161  RH  026%=      5-min Rain = 0
KDO1 121924Z 17012G18KT 39/16 A2992 RMK A01 T03890162  RH  026%=      5-min Rain = 0
KDO1 121925Z 18013KT 39/16 A2992 RMK A01 T03890159  RH  026%=      5-min Rain = 0
KDO1 121926Z 17013KT 39/16 A2992 RMK A01 T03910160  RH  026%=      5-min Rain = 0
KDO1 121927Z 16012KT 39/16 A2992 RMK A01 T03940163  RH  026%=      5-min Rain = 0
KDO1 121928Z 16014G19KT 40/16 A2992 RMK A01 T03960163  RH  026%=      5-min Rain = 0
KDO1 121929Z 15015KT 40/16 A2992 RMK A01 T03950162  RH  026%=      5-min Rain = 0
KDO1 121930Z 14013KT 39/16 A2992 RMK A01 T03940163  RH  026%=      5-min Rain = 0
KDO1 121931Z 14012KT 39/17 A2992 RMK A01 T03930165  RH  026%=      5-min Rain = 0
KDO1 121932Z 13012KT 39/17 A2992 RMK A01 T03930170  RH  027%=      5-min Rain = 0
KDO1 121933Z 13010KT 39/17 A2992 RMK A01 T03930173  RH  028%=      5-min Rain = 0
KDO1 121934Z 13012KT 39/17 A2992 RMK A01 T03920171  RH  028%=      5-min Rain = 0
KDO1 121935Z 12013KT 39/17 A2992 RMK A01 T03910174  RH  028%=      5-min Rain = 0
KDO1 121936Z 15011KT 39/17 A2992 RMK A01 T03900173  RH  028%=      5-min Rain = 0
KDO1 121937Z 16010KT 39/17 A2992 RMK A01 T03910169  RH  027%=      5-min Rain = 0
KDO1 121938Z 13009KT 39/17 A2992 RMK A01 T03930169  RH  027%=      5-min Rain = 0
KDO1 121939Z 15009KT 39/17 A2992 RMK A01 T03930168  RH  027%=      5-min Rain = 0
KDO1 121940Z 15011G17KT 39/17 A2992 RMK A01 T03910170  RH  028%=      5-min Rain = 0
KDO1 121941Z 13012KT 39/17 A2992 RMK A01 T03920168  RH  027%=      5-min Rain = 0
KDO1 121942Z 15010KT 39/17 A2992 RMK A01 T03910168  RH  027%=      5-min Rain = 0
KDO1 121943Z 14009KT 39/17 A2992 RMK A01 T03900168  RH  027%=      5-min Rain = 0
KDO1 121944Z 13011G16KT 39/17 A2992 RMK A01 T03900169  RH  028%=      5-min Rain = 0
KDO1 121945Z 12013KT 39/17 A2991 RMK A01 T03910165  RH  027%=      5-min Rain = 0
KDO1 121946Z 13011G20KT 39/17 A2991 RMK A01 T03910166  RH  027%=      5-min Rain = 0
KDO1 121947Z 14015KT 39/16 A2991 RMK A01 T03920161  RH  026%=      5-min Rain = 0
KDO1 121948Z 15011KT 39/16 A2991 RMK A01 T03920161  RH  026%=      5-min Rain = 0
KDO1 121949Z 14010KT 39/16 A2991 RMK A01 T03920161  RH  026%=      5-min Rain = 0
KDO1 121950Z 14011KT 40/16 A2991 RMK A01 T03950162  RH  026%=      5-min Rain = 0
KDO1 121951Z 15009KT 40/16 A2991 RMK A01 T03970161  RH  025%=      5-min Rain = 0
KDO1 121952Z 14010KT 40/16 A2991 RMK A01 T03960160  RH  025%=      5-min Rain = 0
KDO1 121953Z 14010G15KT 40/16 A2991 RMK A01 T03950162  RH  026%=      5-min Rain = 0
KDO1 121954Z 14013KT 39/16 A2991 RMK A01 T03930164  RH  026%=      5-min Rain = 0
KDO1 121955Z 14016KT 39/16 A2991 RMK A01 T03940163  RH  026%=      5-min Rain = 0
KDO1 121956Z 14017KT 39/16 A2991 RMK A01 T03930162  RH  026%=      5-min Rain = 0
KDO1 121957Z 13012KT 39/16 A2991 RMK A01 T03920163  RH  026%=      5-min Rain = 0
KDO1 121958Z 12011KT 39/17 A2991 RMK A01 T03940165  RH  026%=      5-min Rain = 0
KDO1 121959Z 12013KT 40/16 A2991 RMK A01 T03950164  RH  026%=      5-min Rain = 0
KDO1 122000Z 12013KT 40/17 A299 RMK A01 T03950165  RH  026%=      5-min Rain = 0
KDO1 122001Z 11012KT 40/17 A299 RMK A01 T03950166  RH  026%=      5-min Rain = 0
KDO1 122002Z 12015KT 40/16 A299 RMK A01 T03960164  RH  026%=      5-min Rain = 0
KDO1 122003Z 12014G20KT 39/16 A299 RMK A01 T03930163  RH  026%=      5-min Rain = 0
KDO1 122004Z 11013G18KT 39/16 A299 RMK A01 T03940161  RH  026%=      5-min Rain = 0
KDO1 122005Z 12012KT 40/16 A299 RMK A01 T03950157  RH  025%=      5-min Rain = 0
KDO1 122006Z 14015G20KT 39/16 A299 RMK A01 T03940157  RH  025%=      5-min Rain = 0
KDO1 122007Z 16011KT 39/16 A299 RMK A01 T03940155  RH  025%=      5-min Rain = 0
KDO1 122008Z 14010KT 40/15 A299 RMK A01 T03960154  RH  024%=      5-min Rain = 0
KDO1 122009Z 15011KT 40/16 A299 RMK A01 T03970156  RH  024%=      5-min Rain = 0
KDO1 122010Z 16010G16KT 40/16 A299 RMK A01 T03980155  RH  024%=      5-min Rain = 0
KDO1 122011Z 16012G17KT 40/16 A299 RMK A01 T03990155  RH  024%=      5-min Rain = 0
KDO1 122012Z 16011KT 40/16 A299 RMK A01 T03990156  RH  024%=      5-min Rain = 0
KDO1 122013Z 16013KT 40/16 A299 RMK A01 T04000155  RH  024%=      5-min Rain = 0
KDO1 122014Z 17013G18KT 40/15 A2989 RMK A01 T04010154  RH  024%=      5-min Rain = 0
KDO1 122015Z 16017KT 40/16 A299 RMK A01 T04040156  RH  023%=      5-min Rain = 0
KDO1 122016Z 16017KT 40/15 A299 RMK A01 T04040154  RH  023%=      5-min Rain = 0
KDO1 122017Z 15018KT 40/15 A2989 RMK A01 T04010153  RH  023%=      5-min Rain = 0
KDO1 122018Z 15017G22KT 40/15 A299 RMK A01 T03980152  RH  024%=      5-min Rain = 0
KDO1 122019Z 18016KT 40/15 A299 RMK A01 T03960151  RH  024%=      5-min Rain = 0
KDO1 122020Z 19011G16KT 40/15 A299 RMK A01 T03970150  RH  023%=      5-min Rain = 0
KDO1 122021Z 19015KT 40/15 A2989 RMK A01 T03980153  RH  024%=      5-min Rain = 0
KDO1 122022Z 17010KT 40/15 A299 RMK A01 T04000154  RH  024%=      5-min Rain = 0
KDO1 122023Z 13009KT 40/15 A2989 RMK A01 T04010154  RH  023%=      5-min Rain = 0
KDO1 122024Z 13008KT 40/16 A2989 RMK A01 T04020156  RH  024%=      5-min Rain = 0
KDO1 122025Z 18008G18KT 40/16 A2989 RMK A01 T04010155  RH  024%=      5-min Rain = 0
KDO1 122026Z 19015G21KT 40/15 A2989 RMK A01 T04020154  RH  023%=      5-min Rain = 0
KDO1 122027Z 20015KT 41/15 A2989 RMK A01 T04050153  RH  023%=      5-min Rain = 0
KDO1 122028Z 19014KT 41/15 A2989 RMK A01 T04050152  RH  023%=      5-min Rain = 0
KDO1 122029Z 17015KT 41/15 A2989 RMK A01 T04060154  RH  023%=      5-min Rain = 0
KDO1 122030Z 17013KT 41/15 A2989 RMK A01 T04070154  RH  023%=      5-min Rain = 0
KDO1 122031Z 17016G21KT 41/16 A2989 RMK A01 T04060155  RH  023%=      5-min Rain = 0
KDO1 122032Z 16012KT 41/15 A2989 RMK A01 T04050154  RH  023%=      5-min Rain = 0
KDO1 122033Z 15015KT 40/15 A2989 RMK A01 T04040154  RH  023%=      5-min Rain = 0
KDO1 122034Z 17014KT 40/16 A2989 RMK A01 T04020155  RH  023%=      5-min Rain = 0
KDO1 122035Z 18012G17KT 40/16 A2989 RMK A01 T04020155  RH  024%=      5-min Rain = 0
KDO1 122036Z 16013G21KT 40/16 A2989 RMK A01 T04040158  RH  024%=      5-min Rain = 0
KDO1 122037Z 16018KT 41/15 A2989 RMK A01 T04060153  RH  023%=      5-min Rain = 0
KDO1 122038Z 18016KT 41/15 A2989 RMK A01 T04050151  RH  023%=      5-min Rain = 0
KDO1 122039Z 17016KT 40/15 A2989 RMK A01 T04030150  RH  023%=      5-min Rain = 0
KDO1 122040Z 17014KT 40/15 A2989 RMK A01 T04010150  RH  023%=      5-min Rain = 0
KDO1 122041Z 17009KT 40/15 A2989 RMK A01 T04010151  RH  023%=      5-min Rain = 0
KDO1 122042Z 17013KT 40/15 A2989 RMK A01 T04010153  RH  023%=      5-min Rain = 0
KDO1 122043Z 20011KT 40/15 A2989 RMK A01 T04030152  RH  023%=      5-min Rain = 0
KDO1 122044Z 18012KT 40/15 A2989 RMK A01 T04030152  RH  023%=      5-min Rain = 0
KDO1 122045Z 16011KT 40/15 A2989 RMK A01 T04010154  RH  023%=      5-min Rain = 0
KDO1 122046Z 15014G21KT 40/16 A2989 RMK A01 T04010156  RH  024%=      5-min Rain = 0
KDO1 122047Z 16014KT 40/16 A2989 RMK A01 T04030156  RH  024%=      5-min Rain = 0
KDO1 122048Z 16015KT 40/16 A2989 RMK A01 T04040155  RH  023%=      5-min Rain = 0
KDO1 122049Z 15009G14KT 40/15 A2989 RMK A01 T04020154  RH  024%=      5-min Rain = 0
KDO1 122050Z 15010KT 40/16 A2988 RMK A01 T04000155  RH  024%=      5-min Rain = 0
KDO1 122051Z 15014G19KT 40/15 A2988 RMK A01 T04000154  RH  024%=      5-min Rain = 0
KDO1 122052Z 17016KT 40/15 A2988 RMK A01 T04020153  RH  023%=      5-min Rain = 0
KDO1 122053Z 19013KT 41/15 A2988 RMK A01 T04060150  RH  022%=      5-min Rain = 0
KDO1 122054Z 17013G18KT 41/15 A2988 RMK A01 T04050150  RH  022%=      5-min Rain = 0
KDO1 122055Z 16016KT 41/15 A2988 RMK A01 T04060154  RH  023%=      5-min Rain = 0
KDO1 122056Z 16015KT 41/16 A2988 RMK A01 T04070156  RH  023%=      5-min Rain = 0
KDO1 122057Z 17016KT 41/16 A2988 RMK A01 T04050155  RH  023%=      5-min Rain = 0
KDO1 122058Z 17015KT 40/16 A2988 RMK A01 T04020156  RH  024%=      5-min Rain = 0
KDO1 122059Z 15014KT 40/16 A2988 RMK A01 T04020156  RH  024%=      5-min Rain = 0
KDO1 122100Z 15013KT 40/16 A2988 RMK A01 T04020156  RH  024%=      5-min Rain = 0
KDO1 122101Z 16011KT 40/16 A2988 RMK A01 T04020159  RH  024%=      5-min Rain = 0
KDO1 122102Z 17012G17KT 41/16 A2988 RMK A01 T04050157  RH  024%=      5-min Rain = 0
KDO1 122103Z 17013KT 41/16 A2988 RMK A01 T04060157  RH  023%=      5-min Rain = 0
KDO1 122104Z 17015G20KT 41/16 A2988 RMK A01 T04060159  RH  024%=      5-min Rain = 0
KDO1 122105Z 17014G20KT 41/16 A2988 RMK A01 T04060157  RH  023%=      5-min Rain = 0
KDO1 122106Z 17018G23KT 41/16 A2988 RMK A01 T04050158  RH  024%=      5-min Rain = 0
KDO1 122107Z 18019KT 41/16 A2988 RMK A01 T04060155  RH  023%=      5-min Rain = 0
KDO1 122108Z 18014KT 40/15 A2988 RMK A01 T04030154  RH  023%=      5-min Rain = 0
KDO1 122109Z 16016G21KT 40/16 A2988 RMK A01 T04020155  RH  024%=      5-min Rain = 0
KDO1 122110Z 16011KT 40/16 A2988 RMK A01 T04030157  RH  024%=      5-min Rain = 0
KDO1 122111Z 19015G21KT 41/16 A2988 RMK A01 T04060156  RH  023%=      5-min Rain = 0
KDO1 122112Z 18017G22KT 41/16 A2987 RMK A01 T04060156  RH  023%=      5-min Rain = 0
KDO1 122113Z 17018G23KT 41/16 A2987 RMK A01 T04050155  RH  023%=      5-min Rain = 0
KDO1 122114Z 18016KT 40/15 A2987 RMK A01 T04040154  RH  023%=      5-min Rain = 0
KDO1 122115Z 17011KT 40/15 A2987 RMK A01 T04030154  RH  023%=      5-min Rain = 0
KDO1 122116Z 17013KT 40/16 A2987 RMK A01 T04030156  RH  024%=      5-min Rain = 0
KDO1 122117Z 17013KT 40/16 A2987 RMK A01 T04040155  RH  023%=      5-min Rain = 0
KDO1 122118Z 16014G19KT 41/16 A2987 RMK A01 T04060156  RH  023%=      5-min Rain = 0
KDO1 122119Z 16016G21KT 41/16 A2987 RMK A01 T04070156  RH  023%=      5-min Rain = 0
KDO1 122120Z 19018KT 41/15 A2987 RMK A01 T04070154  RH  023%=      5-min Rain = 0
KDO1 122121Z 19015KT 41/15 A2987 RMK A01 T04060152  RH  023%=      5-min Rain = 0
KDO1 122122Z 18017G23KT 41/15 A2987 RMK A01 T04060153  RH  023%=      5-min Rain = 0
KDO1 122123Z 17018G23KT 41/15 A2987 RMK A01 T04070151  RH  022%=      5-min Rain = 0
KDO1 122124Z 17013KT 40/15 A2987 RMK A01 T04040150  RH  023%=      5-min Rain = 0
KDO1 122125Z 17014KT 40/15 A2987 RMK A01 T04030152  RH  023%=      5-min Rain = 0
KDO1 122126Z 17014KT 40/15 A2987 RMK A01 T04020153  RH  023%=      5-min Rain = 0
KDO1 122127Z 16014G20KT 40/15 A2987 RMK A01 T04020151  RH  023%=      5-min Rain = 0
KDO1 122128Z 16019KT 40/15 A2987 RMK A01 T04010151  RH  023%=      5-min Rain = 0
KDO1 122129Z 16018KT 40/15 A2987 RMK A01 T04000151  RH  023%=      5-min Rain = 0
KDO1 122130Z 16016G24KT 40/15 A2987 RMK A01 T03980150  RH  023%=      5-min Rain = 0
KDO1 122131Z 16014G22KT 40/15 A2987 RMK A01 T03960152  RH  024%=      5-min Rain = 0
KDO1 122132Z 16015G21KT 40/15 A2987 RMK A01 T03960151  RH  024%=      5-min Rain = 0
KDO1 122133Z 17015G20KT 40/15 A2987 RMK A01 T03970152  RH  024%=      5-min Rain = 0
KDO1 122134Z 17017KT 40/15 A2987 RMK A01 T03990151  RH  023%=      5-min Rain = 0
KDO1 122135Z 16015KT 40/15 A2987 RMK A01 T03990151  RH  023%=      5-min Rain = 0
KDO1 122136Z 16015G20KT 40/15 A2987 RMK A01 T03990151  RH  023%=      5-min Rain = 0
KDO1 122137Z 14013KT 40/15 A2987 RMK A01 T03990151  RH  023%=      5-min Rain = 0
KDO1 122138Z 15014KT 40/15 A2987 RMK A01 T03990150  RH  023%=      5-min Rain = 0
KDO1 122139Z 15015G20KT 40/15 A2987 RMK A01 T04000149  RH  023%=      5-min Rain = 0
KDO1 122140Z 15015G20KT 40/15 A2987 RMK A01 T04000150  RH  023%=      5-min Rain = 0
KDO1 122141Z 17013KT 40/15 A2987 RMK A01 T04000151  RH  023%=      5-min Rain = 0
KDO1 122142Z 18014KT 40/15 A2987 RMK A01 T04010151  RH  023%=      5-min Rain = 0
KDO1 122143Z 18014KT 40/15 A2987 RMK A01 T04020151  RH  023%=      5-min Rain = 0
KDO1 122144Z 17018KT 40/15 A2987 RMK A01 T04030151  RH  023%=      5-min Rain = 0
KDO1 122145Z 17012G20KT 40/15 A2987 RMK A01 T04020151  RH  023%=      5-min Rain = 0
KDO1 122146Z 17013G23KT 40/16 A2987 RMK A01 T04010155  RH  024%=      5-min Rain = 0
KDO1 122147Z 16017KT 40/15 A2987 RMK A01 T04030151  RH  023%=      5-min Rain = 0
KDO1 122148Z 16014KT 40/15 A2987 RMK A01 T04030149  RH  023%=      5-min Rain = 0
KDO1 122149Z 16016KT 40/15 A2986 RMK A01 T04010149  RH  023%=      5-min Rain = 0
KDO1 122150Z 18016KT 40/15 A2986 RMK A01 T04010149  RH  023%=      5-min Rain = 0
KDO1 122151Z 17017KT 40/15 A2986 RMK A01 T04010149  RH  023%=      5-min Rain = 0
KDO1 122152Z 16015KT 40/15 A2986 RMK A01 T04020149  RH  023%=      5-min Rain = 0
KDO1 122153Z 16016G21KT 40/15 A2986 RMK A01 T04010150  RH  023%=      5-min Rain = 0
KDO1 122154Z 17017KT 40/15 A2986 RMK A01 T04020149  RH  023%=      5-min Rain = 0
KDO1 122155Z 16016KT 40/15 A2986 RMK A01 T04020150  RH  023%=      5-min Rain = 0
KDO1 122156Z 17020KT 40/15 A2986 RMK A01 T04020148  RH  023%=      5-min Rain = 0
KDO1 122157Z 16017KT 40/15 A2986 RMK A01 T04010149  RH  023%=      5-min Rain = 0
KDO1 122158Z 16018KT 40/15 A2986 RMK A01 T04020148  RH  023%=      5-min Rain = 0
KDO1 122159Z 16016KT 40/15 A2986 RMK A01 T04010148  RH  023%=      5-min Rain = 0
KDO1 122200Z 16014G19KT 40/15 A2986 RMK A01 T04000149  RH  023%=      5-min Rain = 0
KDO1 122201Z 16012KT 40/15 A2986 RMK A01 T04020152  RH  023%=      5-min Rain = 0
KDO1 122202Z 16016G21KT 40/15 A2986 RMK A01 T04040150  RH  023%=      5-min Rain = 0
KDO1 122203Z 16014G19KT 40/15 A2986 RMK A01 T04040149  RH  022%=      5-min Rain = 0
KDO1 122204Z 16011KT 40/15 A2986 RMK A01 T04040151  RH  023%=      5-min Rain = 0
KDO1 122205Z 16017KT 41/15 A2986 RMK A01 T04060149  RH  022%=      5-min Rain = 0
KDO1 122206Z 17015KT 40/15 A2986 RMK A01 T04040147  RH  022%=      5-min Rain = 0
KDO1 122207Z 18012KT 40/15 A2986 RMK A01 T04030151  RH  023%=      5-min Rain = 0
KDO1 122208Z 17014KT 41/15 A2986 RMK A01 T04050150  RH  023%=      5-min Rain = 0
KDO1 122209Z 17014KT 41/15 A2986 RMK A01 T04050151  RH  023%=      5-min Rain = 0
KDO1 122210Z 16015KT 40/15 A2986 RMK A01 T04040152  RH  023%=      5-min Rain = 0
KDO1 122211Z 17013G19KT 40/15 A2986 RMK A01 T04040151  RH  023%=      5-min Rain = 0
KDO1 122212Z 17017G22KT 41/15 A2986 RMK A01 T04050149  RH  022%=      5-min Rain = 0
KDO1 122213Z 18017KT 40/15 A2986 RMK A01 T04040147  RH  022%=      5-min Rain = 0
KDO1 122214Z 17013KT 40/15 A2986 RMK A01 T04020148  RH  023%=      5-min Rain = 0
KDO1 122215Z 16015KT 40/15 A2986 RMK A01 T04020148  RH  023%=      5-min Rain = 0
KDO1 122216Z 16014KT 40/15 A2986 RMK A01 T04010147  RH  022%=      5-min Rain = 0
KDO1 122217Z 16013KT 40/15 A2986 RMK A01 T04000148  RH  023%=      5-min Rain = 0
KDO1 122218Z 17013G20KT 40/15 A2986 RMK A01 T04000150  RH  023%=      5-min Rain = 0
KDO1 122219Z 16019KT 40/15 A2986 RMK A01 T04020149  RH  023%=      5-min Rain = 0
KDO1 122220Z 16015KT 40/15 A2986 RMK A01 T04010146  RH  022%=      5-min Rain = 0
KDO1 122221Z 16016KT 40/15 A2986 RMK A01 T03990147  RH  023%=      5-min Rain = 0
KDO1 122222Z 16015G21KT 40/15 A2986 RMK A01 T03990148  RH  023%=      5-min Rain = 0
KDO1 122223Z 17018KT 40/15 A2986 RMK A01 T04000148  RH  023%=      5-min Rain = 0
KDO1 122224Z 17021KT 40/15 A2986 RMK A01 T04000148  RH  023%=      5-min Rain = 0
KDO1 122225Z 17014KT 40/15 A2986 RMK A01 T04000149  RH  023%=      5-min Rain = 0
KDO1 122226Z 16014G19KT 40/15 A2986 RMK A01 T04000151  RH  023%=      5-min Rain = 0
KDO1 122227Z 17016KT 40/15 A2986 RMK A01 T04020151  RH  023%=      5-min Rain = 0
KDO1 122228Z 19017KT 40/15 A2986 RMK A01 T04020150  RH  023%=      5-min Rain = 0
KDO1 122229Z 18016KT 40/15 A2986 RMK A01 T04020149  RH  023%=      5-min Rain = 0
KDO1 122230Z 16016KT 40/15 A2986 RMK A01 T04020149  RH  023%=      5-min Rain = 0
KDO1 122231Z 17012KT 40/15 A2986 RMK A01 T04020150  RH  023%=      5-min Rain = 0
KDO1 122232Z 17016G21KT 40/15 A2986 RMK A01 T04030150  RH  023%=      5-min Rain = 0
KDO1 122233Z 18018KT 40/15 A2986 RMK A01 T04030149  RH  023%=      5-min Rain = 0
KDO1 122234Z 17015KT 40/15 A2986 RMK A01 T04020147  RH  022%=      5-min Rain = 0
KDO1 122235Z 17016KT 40/15 A2986 RMK A01 T04010148  RH  023%=      5-min Rain = 0
KDO1 122236Z 17014KT 40/15 A2986 RMK A01 T04010149  RH  023%=      5-min Rain = 0
KDO1 122237Z 16011KT 40/15 A2986 RMK A01 T04010148  RH  023%=      5-min Rain = 0
KDO1 122238Z 17011G16KT 40/15 A2986 RMK A01 T04020151  RH  023%=      5-min Rain = 0
KDO1 122239Z 16015G20KT 40/15 A2986 RMK A01 T04030150  RH  023%=      5-min Rain = 0
KDO1 122240Z 15014G20KT 40/15 A2986 RMK A01 T04030151  RH  023%=      5-min Rain = 0
KDO1 122241Z 16013G20KT 40/15 A2986 RMK A01 T04020152  RH  023%=      5-min Rain = 0
KDO1 122242Z 15016KT 40/15 A2986 RMK A01 T04020151  RH  023%=      5-min Rain = 0
KDO1 122243Z 15019KT 40/15 A2986 RMK A01 T04020150  RH  023%=      5-min Rain = 0
KDO1 122244Z 15015KT 40/15 A2986 RMK A01 T04000150  RH  023%=      5-min Rain = 0
KDO1 122245Z 16014KT 40/15 A2986 RMK A01 T03990151  RH  023%=      5-min Rain = 0
KDO1 122246Z 16017KT 40/15 A2986 RMK A01 T03990151  RH  023%=      5-min Rain = 0
KDO1 122247Z 16017KT 40/15 A2986 RMK A01 T04000151  RH  023%=      5-min Rain = 0
KDO1 122248Z 16014KT 40/15 A2986 RMK A01 T03990151  RH  023%=      5-min Rain = 0
KDO1 122249Z 16016KT 40/15 A2986 RMK A01 T03990151  RH  023%=      5-min Rain = 0
KDO1 122250Z 17017G22KT 40/15 A2986 RMK A01 T04000149  RH  023%=      5-min Rain = 0
KDO1 122251Z 17015KT 40/15 A2986 RMK A01 T04000149  RH  023%=      5-min Rain = 0
KDO1 122252Z 17013G18KT 40/15 A2986 RMK A01 T03990150  RH  023%=      5-min Rain = 0
KDO1 122253Z 16016G21KT 40/15 A2986 RMK A01 T04000150  RH  023%=      5-min Rain = 0
KDO1 122254Z 15015G20KT 40/15 A2986 RMK A01 T04000150  RH  023%=      5-min Rain = 0
KDO1 122255Z 16014KT 40/15 A2986 RMK A01 T04000151  RH  023%=      5-min Rain = 0
KDO1 122256Z 16014KT 40/15 A2986 RMK A01 T03990149  RH  023%=      5-min Rain = 0
KDO1 122257Z 17015G20KT 40/15 A2986 RMK A01 T03990148  RH  023%=      5-min Rain = 0
KDO1 122258Z 16015G22KT 40/15 A2986 RMK A01 T03990150  RH  023%=      5-min Rain = 0
KDO1 122259Z 16017KT 40/15 A2986 RMK A01 T04000148  RH  023%=      5-min Rain = 0
KDO1 122300Z 17012KT 40/15 A2986 RMK A01 T03990148  RH  023%=      5-min Rain = 0
KDO1 122301Z 17013KT 40/15 A2986 RMK A01 T04000148  RH  023%=      5-min Rain = 0
KDO1 122302Z 18014KT 40/15 A2986 RMK A01 T04010147  RH  022%=      5-min Rain = 0
KDO1 122303Z 17013KT 40/15 A2986 RMK A01 T04020147  RH  022%=      5-min Rain = 0
KDO1 122304Z 17016KT 40/15 A2986 RMK A01 T04020149  RH  023%=      5-min Rain = 0
KDO1 122305Z 17017KT 40/15 A2986 RMK A01 T04020148  RH  023%=      5-min Rain = 0
KDO1 122306Z 17013KT 40/15 A2986 RMK A01 T04000148  RH  023%=      5-min Rain = 0
KDO1 122307Z 17013KT 40/15 A2986 RMK A01 T04000150  RH  023%=      5-min Rain = 0
KDO1 122308Z 17014G21KT 40/15 A2986 RMK A01 T04010153  RH  023%=      5-min Rain = 0
KDO1 122309Z 17014G20KT 40/15 A2986 RMK A01 T04010152  RH  023%=      5-min Rain = 0
KDO1 122310Z 16012G18KT 40/15 A2986 RMK A01 T04000154  RH  024%=      5-min Rain = 0
KDO1 122311Z 18016KT 40/15 A2986 RMK A01 T04000154  RH  024%=      5-min Rain = 0
KDO1 122312Z 17014KT 40/16 A2986 RMK A01 T04000155  RH  024%=      5-min Rain = 0
KDO1 122313Z 15013KT 40/16 A2986 RMK A01 T04000156  RH  024%=      5-min Rain = 0
KDO1 122314Z 16016G21KT 40/16 A2986 RMK A01 T04000155  RH  024%=      5-min Rain = 0
KDO1 122315Z 16016KT 40/15 A2986 RMK A01 T03990153  RH  024%=      5-min Rain = 0
KDO1 122316Z 17018KT 40/15 A2986 RMK A01 T03980151  RH  023%=      5-min Rain = 0
KDO1 122317Z 16018G23KT 40/15 A2985 RMK A01 T03970149  RH  023%=      5-min Rain = 0
KDO1 122318Z 16015G20KT 40/15 A2985 RMK A01 T03950150  RH  024%=      5-min Rain = 0
KDO1 122319Z 16016G21KT 40/15 A2985 RMK A01 T03950151  RH  024%=      5-min Rain = 0
KDO1 122320Z 16018KT 40/15 A2985 RMK A01 T03960152  RH  024%=      5-min Rain = 0
KDO1 122321Z 17017KT 40/15 A2985 RMK A01 T03960151  RH  024%=      5-min Rain = 0
KDO1 122322Z 17018KT 39/15 A2985 RMK A01 T03940152  RH  024%=      5-min Rain = 0
KDO1 122323Z 17018KT 39/15 A2985 RMK A01 T03940152  RH  024%=      5-min Rain = 0
KDO1 122324Z 17014G19KT 39/15 A2985 RMK A01 T03940153  RH  024%=      5-min Rain = 0
KDO1 122325Z 17012G17KT 39/15 A2985 RMK A01 T03940154  RH  024%=      5-min Rain = 0
KDO1 122326Z 17014G19KT 40/16 A2985 RMK A01 T03960155  RH  024%=      5-min Rain = 0
KDO1 122327Z 17019KT 40/15 A2985 RMK A01 T03960151  RH  024%=      5-min Rain = 0
KDO1 122328Z 17015KT 40/15 A2985 RMK A01 T03950151  RH  024%=      5-min Rain = 0
KDO1 122329Z 17015G21KT 40/15 A2985 RMK A01 T03950152  RH  024%=      5-min Rain = 0
KDO1 122330Z 17017KT 40/15 A2985 RMK A01 T03950150  RH  024%=      5-min Rain = 0
KDO1 122331Z 17017G22KT 39/15 A2985 RMK A01 T03940150  RH  024%=      5-min Rain = 0
KDO1 122332Z 16018KT 39/15 A2985 RMK A01 T03940151  RH  024%=      5-min Rain = 0
KDO1 122333Z 16015G21KT 39/15 A2985 RMK A01 T03940150  RH  024%=      5-min Rain = 0
KDO1 122334Z 16015G20KT 39/15 A2985 RMK A01 T03930150  RH  024%=      5-min Rain = 0
KDO1 122335Z 17019G25KT 39/15 A2985 RMK A01 T03930150  RH  024%=      5-min Rain = 0
KDO1 122336Z 16016KT 39/15 A2985 RMK A01 T03920147  RH  024%=      5-min Rain = 0
KDO1 122337Z 16018KT 39/15 A2985 RMK A01 T03920148  RH  024%=      5-min Rain = 0
KDO1 122338Z 17017KT 39/15 A2985 RMK A01 T03920147  RH  024%=      5-min Rain = 0
KDO1 122339Z 17017G22KT 39/15 A2985 RMK A01 T03920148  RH  024%=      5-min Rain = 0
KDO1 122340Z 16014KT 39/15 A2985 RMK A01 T03920148  RH  024%=      5-min Rain = 0
KDO1 122341Z 17014G19KT 39/15 A2985 RMK A01 T03920149  RH  024%=      5-min Rain = 0
KDO1 122342Z 17015KT 39/15 A2985 RMK A01 T03920148  RH  024%=      5-min Rain = 0
KDO1 122343Z 17016G21KT 39/15 A2985 RMK A01 T03920148  RH  024%=      5-min Rain = 0
KDO1 122344Z 16015KT 39/15 A2985 RMK A01 T03920147  RH  024%=      5-min Rain = 0
KDO1 122345Z 16015G20KT 39/15 A2985 RMK A01 T03920147  RH  024%=      5-min Rain = 0
KDO1 122346Z 16014KT 39/15 A2985 RMK A01 T03920146  RH  023%=      5-min Rain = 0
KDO1 122347Z 16013KT 39/15 A2985 RMK A01 T03920147  RH  024%=      5-min Rain = 0
KDO1 122348Z 15018KT 39/15 A2985 RMK A01 T03910147  RH  024%=      5-min Rain = 0
KDO1 122349Z 16016G21KT 39/15 A2985 RMK A01 T03910146  RH  024%=      5-min Rain = 0
KDO1 122350Z 16019KT 39/15 A2985 RMK A01 T03910146  RH  024%=      5-min Rain = 0
KDO1 122351Z 16018KT 39/15 A2985 RMK A01 T03900146  RH  024%=      5-min Rain = 0
KDO1 122352Z 17016KT 39/15 A2985 RMK A01 T03900147  RH  024%=      5-min Rain = 0
KDO1 122353Z 17015G21KT 39/15 A2985 RMK A01 T03890148  RH  024%=      5-min Rain = 0
KDO1 122354Z 17017KT 39/15 A2985 RMK A01 T03890147  RH  024%=      5-min Rain = 0
KDO1 122355Z 17014G19KT 39/15 A2985 RMK A01 T03890147  RH  024%=      5-min Rain = 0
KDO1 122356Z 17015KT 39/15 A2985 RMK A01 T03890148  RH  024%=      5-min Rain = 0
KDO1 122357Z 17014KT 39/15 A2985 RMK A01 T03890148  RH  024%=      5-min Rain = 0
KDO1 122358Z 17016KT 39/15 A2985 RMK A01 T03890149  RH  024%=      5-min Rain = 0
KDO1 122359Z 17015KT 39/15 A2985 RMK A01 T03880148  RH  024%=      5-min Rain = 0
KDO1 130000Z 17015KT 39/15 A2985 RMK A01 T03880148  RH  024%=      5-min Rain = 0
KDO1 130001Z 16014G19KT 39/15 A2985 RMK A01 T03890149  RH  024%=      5-min Rain = 0
KDO1 130002Z 16013G21KT 39/15 A2985 RMK A01 T03880147  RH  024%=      5-min Rain = 0
KDO1 130003Z 15014G20KT 39/15 A2985 RMK A01 T03880147  RH  024%=      5-min Rain = 0
KDO1 130004Z 16013G18KT 39/15 A2985 RMK A01 T03880147  RH  024%=      5-min Rain = 0
KDO1 130005Z 17013KT 39/15 A2985 RMK A01 T03890148  RH  024%=      5-min Rain = 0
KDO1 130006Z 17015KT 39/15 A2985 RMK A01 T03880148  RH  024%=      5-min Rain = 0
KDO1 130007Z 17015KT 39/15 A2985 RMK A01 T03880150  RH  025%=      5-min Rain = 0
KDO1 130008Z 17016G23KT 39/15 A2985 RMK A01 T03880149  RH  024%=      5-min Rain = 0
KDO1 130009Z 17017KT 39/15 A2985 RMK A01 T03870148  RH  024%=      5-min Rain = 0
KDO1 130010Z 17015G20KT 39/15 A2985 RMK A01 T03870150  RH  025%=      5-min Rain = 0
KDO1 130011Z 17017KT 39/15 A2985 RMK A01 T03870149  RH  025%=      5-min Rain = 0
KDO1 130012Z 16015KT 39/15 A2985 RMK A01 T03860148  RH  025%=      5-min Rain = 0
KDO1 130013Z 16017G23KT 39/15 A2985 RMK A01 T03860147  RH  025%=      5-min Rain = 0
KDO1 130014Z 16016KT 39/15 A2985 RMK A01 T03850146  RH  024%=      5-min Rain = 0
KDO1 130015Z 16014G21KT 39/15 A2985 RMK A01 T03850147  RH  024%=      5-min Rain = 0
KDO1 130016Z 17018KT 39/15 A2985 RMK A01 T03850146  RH  024%=      5-min Rain = 0
KDO1 130017Z 16014KT 39/15 A2985 RMK A01 T03850145  RH  024%=      5-min Rain = 0
KDO1 130018Z 17014G20KT 39/15 A2986 RMK A01 T03850147  RH  025%=      5-min Rain = 0
KDO1 130019Z 17017KT 39/15 A2986 RMK A01 T03850146  RH  024%=      5-min Rain = 0
KDO1 130020Z 17016G21KT 38/15 A2986 RMK A01 T03840145  RH  024%=      5-min Rain = 0
KDO1 130021Z 16014G21KT 38/15 A2986 RMK A01 T03840145  RH  024%=      5-min Rain = 0
KDO1 130022Z 18010KT 38/15 A2986 RMK A01 T03840148  RH  025%=      5-min Rain = 0
KDO1 130023Z 18022G27KT 38/15 A2986 RMK A01 T03840148  RH  025%=      5-min Rain = 0
KDO1 130024Z 19019KT 38/15 A2986 RMK A01 T03830149  RH  025%=      5-min Rain = 0
KDO1 130025Z 19020KT 38/15 A2986 RMK A01 T03810150  RH  025%=      5-min Rain = 0
KDO1 130026Z 20019KT 38/15 A2986 RMK A01 T03790150  RH  026%=      5-min Rain = 0
KDO1 130027Z 20014G21KT 38/15 A2986 RMK A01 T03780151  RH  026%=      5-min Rain = 0
KDO1 130028Z 20018KT 38/15 A2986 RMK A01 T03770152  RH  027%=      5-min Rain = 0
KDO1 130029Z 20020KT 38/15 A2986 RMK A01 T03750152  RH  027%=      5-min Rain = 0
KDO1 130030Z 20020KT 37/15 A2986 RMK A01 T03720149  RH  027%=      5-min Rain = 0
KDO1 130031Z 19020KT 37/15 A2986 RMK A01 T03700147  RH  026%=      5-min Rain = 0
KDO1 130032Z 19020KT 37/15 A2986 RMK A01 T03690145  RH  026%=      5-min Rain = 0
KDO1 130033Z 19017G22KT 37/15 A2986 RMK A01 T03690145  RH  026%=      5-min Rain = 0
KDO1 130034Z 19014KT 37/15 A2986 RMK A01 T03680145  RH  027%=      5-min Rain = 0
KDO1 130035Z 20017KT 37/14 A2987 RMK A01 T03680144  RH  026%=      5-min Rain = 0
KDO1 130036Z 20016KT 37/14 A2986 RMK A01 T03680142  RH  026%=      5-min Rain = 0
KDO1 130037Z 20018KT 37/14 A2986 RMK A01 T03670140  RH  026%=      5-min Rain = 0
KDO1 130038Z 20015KT 37/14 A2987 RMK A01 T03670139  RH  026%=      5-min Rain = 0
KDO1 130039Z 20015KT 37/14 A2987 RMK A01 T03670138  RH  026%=      5-min Rain = 0
KDO1 130040Z 20015G20KT 37/14 A2986 RMK A01 T03660137  RH  025%=      5-min Rain = 0
KDO1 130041Z 20015KT 37/14 A2986 RMK A01 T03660135  RH  025%=      5-min Rain = 0
KDO1 130042Z 19013KT 37/14 A2986 RMK A01 T03650135  RH  025%=      5-min Rain = 0
KDO1 130043Z 19014G19KT 37/14 A2986 RMK A01 T03650136  RH  025%=      5-min Rain = 0
KDO1 130044Z 19015KT 37/14 A2986 RMK A01 T03650135  RH  025%=      5-min Rain = 0
KDO1 130045Z 19014KT 37/14 A2986 RMK A01 T03650135  RH  025%=      5-min Rain = 0
KDO1 130046Z 18013KT 37/14 A2986 RMK A01 T03650136  RH  025%=      5-min Rain = 0
KDO1 130047Z 19012G17KT 37/14 A2986 RMK A01 T03650136  RH  025%=      5-min Rain = 0
KDO1 130048Z 18014KT 37/14 A2986 RMK A01 T03650136  RH  025%=      5-min Rain = 0
KDO1 130049Z 18013KT 37/14 A2986 RMK A01 T03650136  RH  025%=      5-min Rain = 0
KDO1 130050Z 19012KT 37/14 A2986 RMK A01 T03650137  RH  026%=      5-min Rain = 0
KDO1 130051Z 19014KT 36/14 A2986 RMK A01 T03640137  RH  026%=      5-min Rain = 0
KDO1 130052Z 18011KT 36/14 A2986 RMK A01 T03640137  RH  026%=      5-min Rain = 0
KDO1 130053Z 18014KT 36/14 A2986 RMK A01 T03630137  RH  026%=      5-min Rain = 0
KDO1 130054Z 18013KT 36/14 A2986 RMK A01 T03630138  RH  026%=      5-min Rain = 0
KDO1 130055Z 19013KT 36/14 A2986 RMK A01 T03620139  RH  026%=      5-min Rain = 0
KDO1 130056Z 19014KT 36/14 A2986 RMK A01 T03620139  RH  026%=      5-min Rain = 0
KDO1 130057Z 18014KT 36/14 A2986 RMK A01 T03610139  RH  026%=      5-min Rain = 0
KDO1 130058Z 19012KT 36/14 A2986 RMK A01 T03610140  RH  027%=      5-min Rain = 0
KDO1 130059Z 19012KT 36/14 A2986 RMK A01 T03600140  RH  027%=      5-min Rain = 0
KDO1 130100Z 19013KT 36/14 A2986 RMK A01 T03600141  RH  027%=      5-min Rain = 0
KDO1 130101Z 18014KT 36/14 A2986 RMK A01 T03600142  RH  027%=      5-min Rain = 0
KDO1 130102Z 18013KT 36/14 A2986 RMK A01 T03590142  RH  027%=      5-min Rain = 0
KDO1 130103Z 18012KT 36/14 A2986 RMK A01 T03590143  RH  027%=      5-min Rain = 0
KDO1 130104Z 19010KT 36/14 A2986 RMK A01 T03590143  RH  028%=      5-min Rain = 0
KDO1 130105Z 19014KT 36/14 A2986 RMK A01 T03580144  RH  028%=      5-min Rain = 0
KDO1 130106Z 19012KT 36/15 A2986 RMK A01 T03580145  RH  028%=      5-min Rain = 0
KDO1 130107Z 19010KT 36/15 A2986 RMK A01 T03580145  RH  028%=      5-min Rain = 0
KDO1 130108Z 19010KT 36/15 A2986 RMK A01 T03570146  RH  028%=      5-min Rain = 0
KDO1 130109Z 19010KT 36/15 A2986 RMK A01 T03560146  RH  029%=      5-min Rain = 0
KDO1 130110Z 19010KT 36/15 A2986 RMK A01 T03560146  RH  029%=      5-min Rain = 0
KDO1 130111Z 19010KT 36/15 A2986 RMK A01 T03550146  RH  029%=      5-min Rain = 0
KDO1 130112Z 19008KT 36/15 A2986 RMK A01 T03550146  RH  029%=      5-min Rain = 0
KDO1 130113Z 19009KT 35/15 A2986 RMK A01 T03540147  RH  029%=      5-min Rain = 0
KDO1 130114Z 19009KT 35/15 A2986 RMK A01 T03530147  RH  029%=      5-min Rain = 0
KDO1 130115Z 20009KT 35/15 A2986 RMK A01 T03520147  RH  029%=      5-min Rain = 0
KDO1 130116Z 20008KT 35/15 A2986 RMK A01 T03520148  RH  030%=      5-min Rain = 0
KDO1 130117Z 20009KT 35/15 A2987 RMK A01 T03510148  RH  030%=      5-min Rain = 0
KDO1 130118Z 19008KT 35/15 A2987 RMK A01 T03510149  RH  030%=      5-min Rain = 0
KDO1 130119Z 19007KT 35/15 A2987 RMK A01 T03500149  RH  030%=      5-min Rain = 0
KDO1 130120Z 19007KT 35/15 A2986 RMK A01 T03490149  RH  030%=      5-min Rain = 0
KDO1 130121Z 19008KT 35/15 A2986 RMK A01 T03480150  RH  031%=      5-min Rain = 0
KDO1 130122Z 19008KT 35/15 A2987 RMK A01 T03480150  RH  031%=      5-min Rain = 0
KDO1 130123Z 19007KT 35/15 A2987 RMK A01 T03470151  RH  031%=      5-min Rain = 0
KDO1 130124Z 19007KT 35/15 A2987 RMK A01 T03470151  RH  031%=      5-min Rain = 0
KDO1 130125Z 20007KT 35/15 A2987 RMK A01 T03460152  RH  031%=      5-min Rain = 0
KDO1 130126Z 19007KT 35/15 A2987 RMK A01 T03450151  RH  031%=      5-min Rain = 0
KDO1 130127Z 19006KT 34/15 A2987 RMK A01 T03440151  RH  032%=      5-min Rain = 0
KDO1 130128Z 20006KT 34/15 A2987 RMK A01 T03430152  RH  032%=      5-min Rain = 0
KDO1 130129Z 20006KT 34/15 A2987 RMK A01 T03420152  RH  032%=      5-min Rain = 0
KDO1 130130Z 20006KT 34/15 A2987 RMK A01 T03410152  RH  032%=      5-min Rain = 0
KDO1 130131Z 20005KT 34/15 A2987 RMK A01 T03400152  RH  032%=      5-min Rain = 0
KDO1 130132Z 20004KT 34/15 A2987 RMK A01 T03400153  RH  033%=      5-min Rain = 0
KDO1 130133Z 19004KT 34/15 A2987 RMK A01 T03390153  RH  033%=      5-min Rain = 0
KDO1 130134Z 19004KT 34/15 A2987 RMK A01 T03380153  RH  033%=      5-min Rain = 0
KDO1 130135Z 19004KT 34/15 A2987 RMK A01 T03370153  RH  033%=      5-min Rain = 0
KDO1 130136Z 20004KT 34/15 A2987 RMK A01 T03360153  RH  033%=      5-min Rain = 0
KDO1 130137Z 20004KT 34/15 A2987 RMK A01 T03350153  RH  034%=      5-min Rain = 0
KDO1 130138Z 21005KT 33/15 A2987 RMK A01 T03340153  RH  034%=      5-min Rain = 0
KDO1 130139Z 21005KT 33/15 A2987 RMK A01 T03320153  RH  034%=      5-min Rain = 0
KDO1 130140Z 21005KT 33/15 A2987 RMK A01 T03310154  RH  034%=      5-min Rain = 0
KDO1 130141Z 21005KT 33/15 A2987 RMK A01 T03300154  RH  035%=      5-min Rain = 0
KDO1 130142Z 21005KT 33/15 A2987 RMK A01 T03280154  RH  035%=      5-min Rain = 0
KDO1 130143Z 21004KT 33/15 A2987 RMK A01 T03270154  RH  035%=      5-min Rain = 0
KDO1 130144Z 22004KT 33/16 A2987 RMK A01 T03260155  RH  036%=      5-min Rain = 0
KDO1 130145Z 21004KT 33/16 A2987 RMK A01 T03260155  RH  036%=      5-min Rain = 0
KDO1 130146Z 21004KT 33/16 A2987 RMK A01 T03260155  RH  036%=      5-min Rain = 0
KDO1 130147Z 21004KT 33/16 A2987 RMK A01 T03260155  RH  036%=      5-min Rain = 0
KDO1 130148Z 21004KT 33/16 A2987 RMK A01 T03260155  RH  036%=      5-min Rain = 0
KDO1 130149Z 21003KT 33/15 A2987 RMK A01 T03260154  RH  036%=      5-min Rain = 0
KDO1 130150Z 21003KT 33/15 A2987 RMK A01 T03270154  RH  035%=      5-min Rain = 0
KDO1 130151Z 20003KT 33/15 A2987 RMK A01 T03270154  RH  035%=      5-min Rain = 0
KDO1 130152Z 22003KT 33/15 A2987 RMK A01 T03280154  RH  035%=      5-min Rain = 0
KDO1 130153Z 21003KT 33/15 A2987 RMK A01 T03290154  RH  035%=      5-min Rain = 0
KDO1 130154Z 21003KT 33/15 A2987 RMK A01 T03300154  RH  035%=      5-min Rain = 0
KDO1 130155Z 20003KT 33/15 A2987 RMK A01 T03300154  RH  035%=      5-min Rain = 0
KDO1 130156Z 19004KT 33/16 A2987 RMK A01 T03300155  RH  035%=      5-min Rain = 0
KDO1 130157Z 19003KT 33/16 A2987 RMK A01 T03300155  RH  035%=      5-min Rain = 0
KDO1 130158Z 18003KT 33/15 A2987 RMK A01 T03300154  RH  035%=      5-min Rain = 0
KDO1 130159Z 18003KT 33/15 A2987 RMK A01 T03300154  RH  035%=      5-min Rain = 0
KDO1 130200Z 18002KT 33/15 A2987 RMK A01 T03290154  RH  035%=      5-min Rain = 0
KDO1 130201Z 17003KT 33/15 A2987 RMK A01 T03290154  RH  035%=      5-min Rain = 0
KDO1 130202Z 17004KT 33/15 A2987 RMK A01 T03280154  RH  035%=      5-min Rain = 0
KDO1 130203Z 17003KT 33/16 A2987 RMK A01 T03280155  RH  035%=      5-min Rain = 0
KDO1 130204Z 18004KT 33/16 A2987 RMK A01 T03280155  RH  035%=      5-min Rain = 0
KDO1 130205Z 18003KT 33/16 A2987 RMK A01 T03280155  RH  035%=      5-min Rain = 0
KDO1 130206Z 17003KT 33/16 A2987 RMK A01 T03270155  RH  035%=      5-min Rain = 0
KDO1 130207Z 17003KT 33/16 A2987 RMK A01 T03270155  RH  036%=      5-min Rain = 0
KDO1 130208Z 17003KT 33/16 A2987 RMK A01 T03260155  RH  036%=      5-min Rain = 0
KDO1 130209Z 17003KT 33/16 A2987 RMK A01 T03260156  RH  036%=      5-min Rain = 0
KDO1 130210Z 17004KT 33/16 A2987 RMK A01 T03250156  RH  036%=      5-min Rain = 0
KDO1 130211Z 17003KT 33/16 A2987 RMK A01 T03250156  RH  036%=      5-min Rain = 0
KDO1 130212Z 17003KT 32/16 A2987 RMK A01 T03240156  RH  036%=      5-min Rain = 0
KDO1 130213Z 15002KT 32/16 A2987 RMK A01 T03240157  RH  037%=      5-min Rain = 0
KDO1 130214Z 14002KT 32/16 A2987 RMK A01 T03230157  RH  037%=      5-min Rain = 0
KDO1 130215Z 12001KT 32/16 A2987 RMK A01 T03220157  RH  037%=      5-min Rain = 0
KDO1 130216Z 13001KT 32/16 A2987 RMK A01 T03210156  RH  037%=      5-min Rain = 0
KDO1 130217Z 14002KT 32/16 A2987 RMK A01 T03210156  RH  037%=      5-min Rain = 0
KDO1 130218Z 14003KT 32/16 A2987 RMK A01 T03210156  RH  037%=      5-min Rain = 0
KDO1 130219Z 13002KT 32/16 A2987 RMK A01 T03210155  RH  037%=      5-min Rain = 0
KDO1 130220Z 11002KT 32/16 A2987 RMK A01 T03210156  RH  037%=      5-min Rain = 0
KDO1 130221Z 13003KT 32/16 A2987 RMK A01 T03210156  RH  037%=      5-min Rain = 0
KDO1 130222Z 13003KT 32/16 A2988 RMK A01 T03210156  RH  037%=      5-min Rain = 0
KDO1 130223Z 13003KT 32/16 A2988 RMK A01 T03210156  RH  037%=      5-min Rain = 0
KDO1 130224Z 13004KT 32/16 A2988 RMK A01 T03210156  RH  037%=      5-min Rain = 0
KDO1 130225Z 13004KT 32/15 A2988 RMK A01 T03210153  RH  036%=      5-min Rain = 0
KDO1 130226Z 14004KT 32/15 A2988 RMK A01 T03220154  RH  036%=      5-min Rain = 0
KDO1 130227Z 14003KT 32/15 A2988 RMK A01 T03220153  RH  036%=      5-min Rain = 0
KDO1 130228Z 13002KT 32/15 A2988 RMK A01 T03220153  RH  036%=      5-min Rain = 0
KDO1 130229Z 13001KT 32/15 A2988 RMK A01 T03230154  RH  036%=      5-min Rain = 0
KDO1 130230Z 12002KT 32/15 A2988 RMK A01 T03220154  RH  036%=      5-min Rain = 0
KDO1 130231Z 13002KT 32/15 A2988 RMK A01 T03230154  RH  036%=      5-min Rain = 0
KDO1 130232Z 13002KT 32/15 A2988 RMK A01 T03220154  RH  036%=      5-min Rain = 0
KDO1 130233Z 14002KT 32/15 A2988 RMK A01 T03220154  RH  036%=      5-min Rain = 0
KDO1 130234Z 15002KT 32/15 A2988 RMK A01 T03220153  RH  036%=      5-min Rain = 0
KDO1 130235Z 14003KT 32/15 A2988 RMK A01 T03220152  RH  036%=      5-min Rain = 0
KDO1 130236Z 13003KT 32/15 A2988 RMK A01 T03220152  RH  036%=      5-min Rain = 0
KDO1 130237Z 12002KT 32/15 A2988 RMK A01 T03220150  RH  035%=      5-min Rain = 0
KDO1 130238Z 15001KT 32/15 A2988 RMK A01 T03230150  RH  035%=      5-min Rain = 0
KDO1 130239Z 10001KT 32/15 A2988 RMK A01 T03230151  RH  035%=      5-min Rain = 0
KDO1 130240Z 10002KT 32/15 A2988 RMK A01 T03230151  RH  035%=      5-min Rain = 0
KDO1 130241Z 14002KT 32/15 A2989 RMK A01 T03230149  RH  035%=      5-min Rain = 0
KDO1 130242Z 11002KT 32/15 A2989 RMK A01 T03240149  RH  035%=      5-min Rain = 0
KDO1 130243Z 14002KT 33/15 A2989 RMK A01 T03250150  RH  035%=      5-min Rain = 0
KDO1 130244Z 12001KT 33/15 A2989 RMK A01 T03250150  RH  035%=      5-min Rain = 0
KDO1 130245Z 13002KT 32/15 A2989 RMK A01 T03240149  RH  035%=      5-min Rain = 0
KDO1 130246Z 11001KT 32/15 A2989 RMK A01 T03240149  RH  035%=      5-min Rain = 0
KDO1 130247Z 09000KT 32/15 A2989 RMK A01 T03240150  RH  035%=      5-min Rain = 0
KDO1 130248Z 08001KT 32/15 A2989 RMK A01 T03240150  RH  035%=      5-min Rain = 0
KDO1 130249Z 09000KT 32/15 A2989 RMK A01 T03230149  RH  035%=      5-min Rain = 0
KDO1 130250Z 08001KT 32/15 A2989 RMK A01 T03230149  RH  035%=      5-min Rain = 0
KDO1 130251Z 17001KT 32/15 A2989 RMK A01 T03220148  RH  035%=      5-min Rain = 0
KDO1 130252Z 18001KT 32/15 A2989 RMK A01 T03220147  RH  035%=      5-min Rain = 0
KDO1 130253Z 17000KT 32/15 A2989 RMK A01 T03220148  RH  035%=      5-min Rain = 0
KDO1 130254Z 18002KT 32/15 A2989 RMK A01 T03210146  RH  035%=      5-min Rain = 0
KDO1 130255Z 17003KT 32/14 A2989 RMK A01 T03220144  RH  034%=      5-min Rain = 0
KDO1 130256Z 16001KT 32/15 A2989 RMK A01 T03240146  RH  034%=      5-min Rain = 0
KDO1 130257Z 21000KT 32/15 A2989 RMK A01 T03240146  RH  034%=      5-min Rain = 0
KDO1 130258Z 21001KT 32/15 A2989 RMK A01 T03240146  RH  034%=      5-min Rain = 0
KDO1 130259Z 17004KT 32/15 A299 RMK A01 T03230147  RH  034%=      5-min Rain = 0
KDO1 130300Z 18004KT 32/15 A299 RMK A01 T03220146  RH  034%=      5-min Rain = 0
KDO1 130301Z 18003KT 32/15 A299 RMK A01 T03210146  RH  035%=      5-min Rain = 0
KDO1 130302Z 19002KT 32/15 A299 RMK A01 T03210145  RH  035%=      5-min Rain = 0
KDO1 130303Z 20003KT 32/15 A299 RMK A01 T03210146  RH  035%=      5-min Rain = 0
KDO1 130304Z 19003KT 32/15 A299 RMK A01 T03210146  RH  035%=      5-min Rain = 0
KDO1 130305Z 19003KT 32/15 A299 RMK A01 T03200146  RH  035%=      5-min Rain = 0
KDO1 130306Z 19003KT 32/15 A299 RMK A01 T03190146  RH  035%=      5-min Rain = 0
KDO1 130307Z 19003KT 32/15 A299 RMK A01 T03180145  RH  035%=      5-min Rain = 0
KDO1 130308Z 18003KT 32/15 A299 RMK A01 T03180146  RH  035%=      5-min Rain = 0
KDO1 130309Z 19003KT 32/15 A299 RMK A01 T03170145  RH  035%=      5-min Rain = 0
KDO1 130310Z 19003KT 32/14 A299 RMK A01 T03170144  RH  035%=      5-min Rain = 0
KDO1 130311Z 20004KT 32/14 A299 RMK A01 T03170144  RH  035%=      5-min Rain = 0
KDO1 130312Z 21004KT 32/15 A299 RMK A01 T03180145  RH  035%=      5-min Rain = 0
KDO1 130313Z 21004KT 32/15 A299 RMK A01 T03180145  RH  035%=      5-min Rain = 0
KDO1 130314Z 21004KT 32/15 A2991 RMK A01 T03170145  RH  035%=      5-min Rain = 0
KDO1 130315Z 20005KT 32/15 A2991 RMK A01 T03170145  RH  035%=      5-min Rain = 0
KDO1 130316Z 20005KT 32/14 A2991 RMK A01 T03170144  RH  035%=      5-min Rain = 0
KDO1 130317Z 20005KT 32/15 A2991 RMK A01 T03180145  RH  035%=      5-min Rain = 0
KDO1 130318Z 21006KT 32/15 A2991 RMK A01 T03170145  RH  035%=      5-min Rain = 0
KDO1 130319Z 21006KT 32/15 A2991 RMK A01 T03160145  RH  035%=      5-min Rain = 0
KDO1 130320Z 21006KT 32/15 A2991 RMK A01 T03150145  RH  036%=      5-min Rain = 0
KDO1 130321Z 21007KT 31/14 A2991 RMK A01 T03140144  RH  036%=      5-min Rain = 0
KDO1 130322Z 20005KT 32/14 A2991 RMK A01 T03150144  RH  036%=      5-min Rain = 0
KDO1 130323Z 21006KT 31/14 A2991 RMK A01 T03140144  RH  036%=      5-min Rain = 0
KDO1 130324Z 21006KT 31/14 A2991 RMK A01 T03140144  RH  036%=      5-min Rain = 0
KDO1 130325Z 21006KT 31/14 A2991 RMK A01 T03140144  RH  036%=      5-min Rain = 0
KDO1 130326Z 20007KT 31/15 A2991 RMK A01 T03140145  RH  036%=      5-min Rain = 0
KDO1 130327Z 20006KT 31/14 A2991 RMK A01 T03140143  RH  036%=      5-min Rain = 0
KDO1 130328Z 19005KT 31/14 A2991 RMK A01 T03140144  RH  035%=      5-min Rain = 0
KDO1 130329Z 19006KT 32/14 A2991 RMK A01 T03150143  RH  035%=      5-min Rain = 0
KDO1 130330Z 19006KT 32/14 A2991 RMK A01 T03150144  RH  035%=      5-min Rain = 0
KDO1 130331Z 19005KT 31/14 A2991 RMK A01 T03140144  RH  036%=      5-min Rain = 0
KDO1 130332Z 19005KT 31/14 A2991 RMK A01 T03140144  RH  036%=      5-min Rain = 0
KDO1 130333Z 19006KT 31/14 A2991 RMK A01 T03140144  RH  036%=      5-min Rain = 0
KDO1 130334Z 20006KT 31/14 A2991 RMK A01 T03130143  RH  036%=      5-min Rain = 0
KDO1 130335Z 20006KT 31/14 A2991 RMK A01 T03130144  RH  036%=      5-min Rain = 0
KDO1 130336Z 20005KT 31/14 A2991 RMK A01 T03130144  RH  036%=      5-min Rain = 0
KDO1 130337Z 20006KT 31/14 A2991 RMK A01 T03120144  RH  036%=      5-min Rain = 0
KDO1 130338Z 21007KT 31/14 A2991 RMK A01 T03120144  RH  036%=      5-min Rain = 0
KDO1 130339Z 21007KT 31/14 A2991 RMK A01 T03110143  RH  036%=      5-min Rain = 0
KDO1 130340Z 22007KT 31/14 A2991 RMK A01 T03110143  RH  036%=      5-min Rain = 0
KDO1 130341Z 21007KT 31/14 A2991 RMK A01 T03100144  RH  036%=      5-min Rain = 0
KDO1 130342Z 20008KT 31/14 A2991 RMK A01 T03090144  RH  037%=      5-min Rain = 0
KDO1 130343Z 21008KT 31/14 A2991 RMK A01 T03090143  RH  037%=      5-min Rain = 0
KDO1 130344Z 21008KT 31/14 A2991 RMK A01 T03100143  RH  036%=      5-min Rain = 0
KDO1 130345Z 21007KT 31/14 A2991 RMK A01 T03110143  RH  036%=      5-min Rain = 0
KDO1 130346Z 21007KT 31/14 A2991 RMK A01 T03110144  RH  036%=      5-min Rain = 0
KDO1 130347Z 20008KT 31/14 A2991 RMK A01 T03100144  RH  036%=      5-min Rain = 0
KDO1 130348Z 20007KT 31/14 A2991 RMK A01 T03090144  RH  037%=      5-min Rain = 0
KDO1 130349Z 20007KT 31/14 A2991 RMK A01 T03090144  RH  037%=      5-min Rain = 0
KDO1 130350Z 20007KT 31/14 A2991 RMK A01 T03080144  RH  037%=      5-min Rain = 0
KDO1 130351Z 20008KT 31/14 A2991 RMK A01 T03080144  RH  037%=      5-min Rain = 0
KDO1 130352Z 21006KT 31/14 A2991 RMK A01 T03080143  RH  037%=      5-min Rain = 0
KDO1 130353Z 21007KT 31/14 A2991 RMK A01 T03080144  RH  037%=      5-min Rain = 0
KDO1 130354Z 21007KT 31/14 A2991 RMK A01 T03080144  RH  037%=      5-min Rain = 0
KDO1 130355Z 21007KT 31/14 A2991 RMK A01 T03080144  RH  037%=      5-min Rain = 0
KDO1 130356Z 21007KT 31/14 A2991 RMK A01 T03070144  RH  037%=      5-min Rain = 0
KDO1 130357Z 21006KT 31/14 A2991 RMK A01 T03070144  RH  037%=      5-min Rain = 0
KDO1 130358Z 21006KT 31/14 A2991 RMK A01 T03060144  RH  037%=      5-min Rain = 0
KDO1 130359Z 21006KT 31/14 A2991 RMK A01 T03050144  RH  037%=      5-min Rain = 0
KDO1 130400Z 21005KT 30/14 A2991 RMK A01 T03040144  RH  038%=      5-min Rain = 0
KDO1 130401Z 21005KT 30/14 A2991 RMK A01 T03040144  RH  038%=      5-min Rain = 0
KDO1 130402Z 21005KT 30/14 A2991 RMK A01 T03030144  RH  038%=      5-min Rain = 0
KDO1 130403Z 21004KT 30/14 A2991 RMK A01 T03020144  RH  038%=      5-min Rain = 0
KDO1 130404Z 22004KT 30/15 A2991 RMK A01 T03010146  RH  039%=      5-min Rain = 0
KDO1 130405Z 22004KT 30/15 A2991 RMK A01 T02990146  RH  039%=      5-min Rain = 0
KDO1 130406Z 23003KT 30/15 A2991 RMK A01 T02970146  RH  040%=      5-min Rain = 0
KDO1 130407Z 23003KT 30/15 A2991 RMK A01 T02960145  RH  040%=      5-min Rain = 0
KDO1 130408Z 23003KT 30/14 A2991 RMK A01 T02960144  RH  040%=      5-min Rain = 0
KDO1 130409Z 23003KT 30/14 A2991 RMK A01 T02960144  RH  040%=      5-min Rain = 0
KDO1 130410Z 23003KT 30/14 A2991 RMK A01 T02960144  RH  040%=      5-min Rain = 0
KDO1 130411Z 22003KT 30/14 A2991 RMK A01 T02950144  RH  040%=      5-min Rain = 0
KDO1 130412Z 22003KT 30/14 A2991 RMK A01 T02950144  RH  040%=      5-min Rain = 0
KDO1 130413Z 23003KT 30/14 A2991 RMK A01 T02950144  RH  040%=      5-min Rain = 0
KDO1 130414Z 24002KT 30/15 A2991 RMK A01 T02950145  RH  040%=      5-min Rain = 0
KDO1 130415Z 25002KT 30/15 A2991 RMK A01 T02950145  RH  040%=      5-min Rain = 0
KDO1 130416Z 25002KT 30/15 A2991 RMK A01 T02950146  RH  040%=      5-min Rain = 0
KDO1 130417Z 26002KT 30/15 A2991 RMK A01 T02950146  RH  040%=      5-min Rain = 0
KDO1 130418Z 26002KT 30/15 A2991 RMK A01 T02960146  RH  040%=      5-min Rain = 0
KDO1 130419Z 26002KT 30/15 A2991 RMK A01 T02960147  RH  040%=      5-min Rain = 0
KDO1 130420Z 25002KT 30/15 A2991 RMK A01 T02950147  RH  041%=      5-min Rain = 0
KDO1 130421Z 26003KT 30/15 A2992 RMK A01 T02950148  RH  041%=      5-min Rain = 0
KDO1 130422Z 26002KT 30/15 A2991 RMK A01 T02950148  RH  041%=      5-min Rain = 0
KDO1 130423Z 27002KT 29/15 A2991 RMK A01 T02940148  RH  041%=      5-min Rain = 0
KDO1 130424Z 29002KT 29/15 A2991 RMK A01 T02940148  RH  041%=      5-min Rain = 0
KDO1 130425Z 28002KT 29/15 A2991 RMK A01 T02940148  RH  041%=      5-min Rain = 0
KDO1 130426Z 26002KT 29/15 A2991 RMK A01 T02940149  RH  041%=      5-min Rain = 0
KDO1 130427Z 26002KT 29/15 A2992 RMK A01 T02930149  RH  042%=      5-min Rain = 0
KDO1 130428Z 25003KT 29/15 A2992 RMK A01 T02930149  RH  042%=      5-min Rain = 0
KDO1 130429Z 23003KT 29/15 A2992 RMK A01 T02920148  RH  041%=      5-min Rain = 0
KDO1 130430Z 24002KT 29/15 A2992 RMK A01 T02930147  RH  041%=      5-min Rain = 0
KDO1 130431Z 24003KT 29/15 A2992 RMK A01 T02940147  RH  041%=      5-min Rain = 0
KDO1 130432Z 24002KT 30/15 A2992 RMK A01 T02950147  RH  041%=      5-min Rain = 0
KDO1 130433Z 24003KT 30/15 A2992 RMK A01 T02960147  RH  040%=      5-min Rain = 0
KDO1 130434Z 25003KT 30/15 A2992 RMK A01 T02960148  RH  040%=      5-min Rain = 0
KDO1 130435Z 25003KT 30/15 A2992 RMK A01 T02970148  RH  040%=      5-min Rain = 0
KDO1 130436Z 24003KT 30/15 A2992 RMK A01 T02970148  RH  040%=      5-min Rain = 0
KDO1 130437Z 25003KT 30/15 A2992 RMK A01 T02960149  RH  041%=      5-min Rain = 0
KDO1 130438Z 25003KT 30/15 A2992 RMK A01 T02960150  RH  041%=      5-min Rain = 0
KDO1 130439Z 24003KT 30/15 A2992 RMK A01 T02950149  RH  041%=      5-min Rain = 0
KDO1 130440Z 23003KT 29/15 A2992 RMK A01 T02940149  RH  041%=      5-min Rain = 0
KDO1 130441Z 23003KT 29/15 A2992 RMK A01 T02930148  RH  041%=      5-min Rain = 0
KDO1 130442Z 23003KT 29/15 A2992 RMK A01 T02930148  RH  041%=      5-min Rain = 0
KDO1 130443Z 23003KT 29/15 A2991 RMK A01 T02920148  RH  041%=      5-min Rain = 0
KDO1 130444Z 23003KT 29/15 A2991 RMK A01 T02920148  RH  041%=      5-min Rain = 0
KDO1 130445Z 23003KT 29/15 A2991 RMK A01 T02920148  RH  041%=      5-min Rain = 0
KDO1 130446Z 22004KT 29/15 A2991 RMK A01 T02920148  RH  041%=      5-min Rain = 0
KDO1 130447Z 22004KT 29/15 A2991 RMK A01 T02930148  RH  041%=      5-min Rain = 0
KDO1 130448Z 22004KT 29/15 A2991 RMK A01 T02930148  RH  041%=      5-min Rain = 0
KDO1 130449Z 22004KT 29/15 A2991 RMK A01 T02930148  RH  041%=      5-min Rain = 0
KDO1 130450Z 22004KT 29/15 A2991 RMK A01 T02930148  RH  041%=      5-min Rain = 0
KDO1 130451Z 22004KT 29/15 A2991 RMK A01 T02910148  RH  042%=      5-min Rain = 0
KDO1 130452Z 22004KT 29/15 A2991 RMK A01 T02910148  RH  042%=      5-min Rain = 0
KDO1 130453Z 21004KT 29/15 A2991 RMK A01 T02900149  RH  042%=      5-min Rain = 0
KDO1 130454Z 21005KT 29/15 A2991 RMK A01 T02890149  RH  042%=      5-min Rain = 0
KDO1 130455Z 21004KT 29/15 A2992 RMK A01 T02880148  RH  043%=      5-min Rain = 0
KDO1 130456Z 21005KT 29/15 A2992 RMK A01 T02870148  RH  043%=      5-min Rain = 0
KDO1 130457Z 21005KT 29/15 A2992 RMK A01 T02860149  RH  043%=      5-min Rain = 0
KDO1 130458Z 22004KT 29/15 A2992 RMK A01 T02850149  RH  043%=      5-min Rain = 0
KDO1 130459Z 22004KT 28/15 A2992 RMK A01 T02840149  RH  044%=      5-min Rain = 0

Page generated in 0.0737 seconds.